<?xml version="1.0" encoding="UTF-8" standalone="no" ?>
<gpx xmlns="http://www.topografix.com/GPX/1/1" xmlns:xsi="http://www.w3.org/2001/XMLSchema-instance" xsi:schemaLocation="http://www.topografix.com/GPX/1/1 http://www.topografix.com/GPX/1/1/gpx.xsd" version="1.1" creator="VisuGPX - https://www.visugpx.com">
  <metadata>
    <name>RSPFY-Poteau des Hauts Besnières</name>
    <desc><![CDATA[marche nordique depuis le poteau des Hauts Besnières, parcours en deux boucles:
une dans le bois des Hauts Besnières et une dans le bois des Gaules.]]></desc>
  </metadata>
  <trk>
    <name><![CDATA[2024-04-23 08:58]]></name>
    <desc><![CDATA[<p>Heure de départ: 08:58 23 avr. 2024<br/>Heure d'arrivée: 11:29 23 avr. 2024<br/>Distance: 11,3 km (02:30)<br/>Temps déplacement: 02:07<br/>Vitesse moyenne: 4,53 km/h<br/>Vitesse moyenne mouv.: 5,36 km/h<br/>Vitesse Max.: 11,01 km/h<br/>Altitude minimale: 119 m<br/>Altitude maximale: 204 m<br/>Vitesse de montée: 282,4 m/h<br/>Vitesse de descente: -344,3 m/h<br/>Gain d'altitude: 388 m<br/>Perte d'altitude: -385 m<br/>Temps de montée: 01:22<br/>Temps de descente: 01:07<br/></p><hr align="center" width="480" style="height: 2px; width: 517px"/>]]></desc>
    <trkseg>
      <trkpt lat="48.65543" lon="1.92492">
        <ele>167.7</ele>
        <time>2024-04-23T06:58:41Z</time>
      </trkpt>
      <trkpt lat="48.6554" lon="1.92479">
        <ele>167.9</ele>
        <time>2024-04-23T06:59:47Z</time>
      </trkpt>
      <trkpt lat="48.65533" lon="1.92468">
        <ele>168</ele>
        <time>2024-04-23T06:59:53Z</time>
      </trkpt>
      <trkpt lat="48.65525" lon="1.9246">
        <ele>167.8</ele>
        <time>2024-04-23T07:00:00Z</time>
      </trkpt>
      <trkpt lat="48.65519" lon="1.92449">
        <ele>167.4</ele>
        <time>2024-04-23T07:00:09Z</time>
      </trkpt>
      <trkpt lat="48.65511" lon="1.92442">
        <ele>166.8</ele>
        <time>2024-04-23T07:00:17Z</time>
      </trkpt>
      <trkpt lat="48.65503" lon="1.92434">
        <ele>166.3</ele>
        <time>2024-04-23T07:00:23Z</time>
      </trkpt>
      <trkpt lat="48.65494" lon="1.92428">
        <ele>165.5</ele>
        <time>2024-04-23T07:00:30Z</time>
      </trkpt>
      <trkpt lat="48.65486" lon="1.92423">
        <ele>164.9</ele>
        <time>2024-04-23T07:00:36Z</time>
      </trkpt>
      <trkpt lat="48.65479" lon="1.92412">
        <ele>164.6</ele>
        <time>2024-04-23T07:00:43Z</time>
      </trkpt>
      <trkpt lat="48.65472" lon="1.92402">
        <ele>164.5</ele>
        <time>2024-04-23T07:00:51Z</time>
      </trkpt>
      <trkpt lat="48.65464" lon="1.92392">
        <ele>165.2</ele>
        <time>2024-04-23T07:00:58Z</time>
      </trkpt>
      <trkpt lat="48.65457" lon="1.92383">
        <ele>165.7</ele>
        <time>2024-04-23T07:01:04Z</time>
      </trkpt>
      <trkpt lat="48.65449" lon="1.92376">
        <ele>166.2</ele>
        <time>2024-04-23T07:01:10Z</time>
      </trkpt>
      <trkpt lat="48.65441" lon="1.92368">
        <ele>167</ele>
        <time>2024-04-23T07:01:17Z</time>
      </trkpt>
      <trkpt lat="48.65433" lon="1.92362">
        <ele>167.8</ele>
        <time>2024-04-23T07:01:24Z</time>
      </trkpt>
      <trkpt lat="48.65425" lon="1.92353">
        <ele>168.4</ele>
        <time>2024-04-23T07:01:31Z</time>
      </trkpt>
      <trkpt lat="48.65416" lon="1.92344">
        <ele>169</ele>
        <time>2024-04-23T07:01:38Z</time>
      </trkpt>
      <trkpt lat="48.6541" lon="1.92333">
        <ele>169.5</ele>
        <time>2024-04-23T07:01:45Z</time>
      </trkpt>
      <trkpt lat="48.65402" lon="1.92324">
        <ele>170.1</ele>
        <time>2024-04-23T07:01:52Z</time>
      </trkpt>
      <trkpt lat="48.65393" lon="1.92315">
        <ele>170.7</ele>
        <time>2024-04-23T07:01:59Z</time>
      </trkpt>
      <trkpt lat="48.65385" lon="1.92309">
        <ele>171.2</ele>
        <time>2024-04-23T07:02:07Z</time>
      </trkpt>
      <trkpt lat="48.65376" lon="1.92302">
        <ele>171.5</ele>
        <time>2024-04-23T07:02:15Z</time>
      </trkpt>
      <trkpt lat="48.65368" lon="1.92294">
        <ele>171.7</ele>
        <time>2024-04-23T07:02:21Z</time>
      </trkpt>
      <trkpt lat="48.6536" lon="1.92286">
        <ele>172</ele>
        <time>2024-04-23T07:02:28Z</time>
      </trkpt>
      <trkpt lat="48.65351" lon="1.92277">
        <ele>172</ele>
        <time>2024-04-23T07:02:35Z</time>
      </trkpt>
      <trkpt lat="48.65344" lon="1.92267">
        <ele>172</ele>
        <time>2024-04-23T07:02:41Z</time>
      </trkpt>
      <trkpt lat="48.65337" lon="1.92257">
        <ele>172</ele>
        <time>2024-04-23T07:02:47Z</time>
      </trkpt>
      <trkpt lat="48.65329" lon="1.92248">
        <ele>172</ele>
        <time>2024-04-23T07:02:53Z</time>
      </trkpt>
      <trkpt lat="48.65321" lon="1.92241">
        <ele>172</ele>
        <time>2024-04-23T07:02:59Z</time>
      </trkpt>
      <trkpt lat="48.65314" lon="1.92231">
        <ele>172</ele>
        <time>2024-04-23T07:03:06Z</time>
      </trkpt>
      <trkpt lat="48.65306" lon="1.9222">
        <ele>172</ele>
        <time>2024-04-23T07:03:14Z</time>
      </trkpt>
      <trkpt lat="48.65299" lon="1.92212">
        <ele>171.9</ele>
        <time>2024-04-23T07:03:21Z</time>
      </trkpt>
      <trkpt lat="48.65291" lon="1.92205">
        <ele>171.7</ele>
        <time>2024-04-23T07:03:28Z</time>
      </trkpt>
      <trkpt lat="48.65283" lon="1.92196">
        <ele>171.2</ele>
        <time>2024-04-23T07:03:34Z</time>
      </trkpt>
      <trkpt lat="48.65276" lon="1.92186">
        <ele>171</ele>
        <time>2024-04-23T07:03:40Z</time>
      </trkpt>
      <trkpt lat="48.65269" lon="1.92179">
        <ele>171</ele>
        <time>2024-04-23T07:03:47Z</time>
      </trkpt>
      <trkpt lat="48.6526" lon="1.9217">
        <ele>171</ele>
        <time>2024-04-23T07:03:54Z</time>
      </trkpt>
      <trkpt lat="48.65252" lon="1.92162">
        <ele>171</ele>
        <time>2024-04-23T07:04:01Z</time>
      </trkpt>
      <trkpt lat="48.65244" lon="1.92154">
        <ele>171</ele>
        <time>2024-04-23T07:04:08Z</time>
      </trkpt>
      <trkpt lat="48.65238" lon="1.92142">
        <ele>171</ele>
        <time>2024-04-23T07:04:16Z</time>
      </trkpt>
      <trkpt lat="48.6523" lon="1.92146">
        <ele>171</ele>
        <time>2024-04-23T07:04:25Z</time>
      </trkpt>
      <trkpt lat="48.65225" lon="1.92159">
        <ele>171</ele>
        <time>2024-04-23T07:04:33Z</time>
      </trkpt>
      <trkpt lat="48.65219" lon="1.92171">
        <ele>171</ele>
        <time>2024-04-23T07:04:41Z</time>
      </trkpt>
      <trkpt lat="48.65214" lon="1.92183">
        <ele>171</ele>
        <time>2024-04-23T07:04:50Z</time>
      </trkpt>
      <trkpt lat="48.65208" lon="1.92194">
        <ele>171</ele>
        <time>2024-04-23T07:04:58Z</time>
      </trkpt>
      <trkpt lat="48.65203" lon="1.92208">
        <ele>171</ele>
        <time>2024-04-23T07:05:05Z</time>
      </trkpt>
      <trkpt lat="48.65198" lon="1.9222">
        <ele>171</ele>
        <time>2024-04-23T07:05:11Z</time>
      </trkpt>
      <trkpt lat="48.65191" lon="1.92232">
        <ele>171</ele>
        <time>2024-04-23T07:05:19Z</time>
      </trkpt>
      <trkpt lat="48.65186" lon="1.92246">
        <ele>171</ele>
        <time>2024-04-23T07:05:27Z</time>
      </trkpt>
      <trkpt lat="48.65181" lon="1.92258">
        <ele>171</ele>
        <time>2024-04-23T07:05:33Z</time>
      </trkpt>
      <trkpt lat="48.65174" lon="1.92269">
        <ele>171</ele>
        <time>2024-04-23T07:05:41Z</time>
      </trkpt>
      <trkpt lat="48.65169" lon="1.92282">
        <ele>171</ele>
        <time>2024-04-23T07:05:48Z</time>
      </trkpt>
      <trkpt lat="48.65164" lon="1.92293">
        <ele>171</ele>
        <time>2024-04-23T07:05:55Z</time>
      </trkpt>
      <trkpt lat="48.65159" lon="1.92305">
        <ele>171</ele>
        <time>2024-04-23T07:06:02Z</time>
      </trkpt>
      <trkpt lat="48.65155" lon="1.92317">
        <ele>171</ele>
        <time>2024-04-23T07:06:09Z</time>
      </trkpt>
      <trkpt lat="48.65149" lon="1.9233">
        <ele>171</ele>
        <time>2024-04-23T07:06:17Z</time>
      </trkpt>
      <trkpt lat="48.65144" lon="1.92342">
        <ele>171</ele>
        <time>2024-04-23T07:06:24Z</time>
      </trkpt>
      <trkpt lat="48.65138" lon="1.92355">
        <ele>171</ele>
        <time>2024-04-23T07:06:31Z</time>
      </trkpt>
      <trkpt lat="48.65134" lon="1.92367">
        <ele>171</ele>
        <time>2024-04-23T07:06:37Z</time>
      </trkpt>
      <trkpt lat="48.65128" lon="1.9238">
        <ele>171</ele>
        <time>2024-04-23T07:06:44Z</time>
      </trkpt>
      <trkpt lat="48.65122" lon="1.92391">
        <ele>171</ele>
        <time>2024-04-23T07:06:50Z</time>
      </trkpt>
      <trkpt lat="48.65116" lon="1.92402">
        <ele>171</ele>
        <time>2024-04-23T07:06:57Z</time>
      </trkpt>
      <trkpt lat="48.65109" lon="1.92413">
        <ele>171</ele>
        <time>2024-04-23T07:07:04Z</time>
      </trkpt>
      <trkpt lat="48.65105" lon="1.92427">
        <ele>171</ele>
        <time>2024-04-23T07:07:11Z</time>
      </trkpt>
      <trkpt lat="48.65099" lon="1.92438">
        <ele>171</ele>
        <time>2024-04-23T07:07:17Z</time>
      </trkpt>
      <trkpt lat="48.65093" lon="1.92449">
        <ele>171</ele>
        <time>2024-04-23T07:07:23Z</time>
      </trkpt>
      <trkpt lat="48.65088" lon="1.92461">
        <ele>171</ele>
        <time>2024-04-23T07:07:30Z</time>
      </trkpt>
      <trkpt lat="48.65082" lon="1.92472">
        <ele>171</ele>
        <time>2024-04-23T07:07:36Z</time>
      </trkpt>
      <trkpt lat="48.65078" lon="1.92484">
        <ele>171</ele>
        <time>2024-04-23T07:07:43Z</time>
      </trkpt>
      <trkpt lat="48.65071" lon="1.92496">
        <ele>171</ele>
        <time>2024-04-23T07:07:51Z</time>
      </trkpt>
      <trkpt lat="48.65067" lon="1.92511">
        <ele>171</ele>
        <time>2024-04-23T07:07:58Z</time>
      </trkpt>
      <trkpt lat="48.65063" lon="1.92525">
        <ele>171</ele>
        <time>2024-04-23T07:08:04Z</time>
      </trkpt>
      <trkpt lat="48.65058" lon="1.92538">
        <ele>171</ele>
        <time>2024-04-23T07:08:10Z</time>
      </trkpt>
      <trkpt lat="48.65052" lon="1.92551">
        <ele>171</ele>
        <time>2024-04-23T07:08:17Z</time>
      </trkpt>
      <trkpt lat="48.65046" lon="1.92561">
        <ele>171</ele>
        <time>2024-04-23T07:08:24Z</time>
      </trkpt>
      <trkpt lat="48.65039" lon="1.92573">
        <ele>171</ele>
        <time>2024-04-23T07:08:31Z</time>
      </trkpt>
      <trkpt lat="48.65034" lon="1.92585">
        <ele>171</ele>
        <time>2024-04-23T07:08:38Z</time>
      </trkpt>
      <trkpt lat="48.65029" lon="1.92597">
        <ele>171</ele>
        <time>2024-04-23T07:08:46Z</time>
      </trkpt>
      <trkpt lat="48.65025" lon="1.92609">
        <ele>170.9</ele>
        <time>2024-04-23T07:08:53Z</time>
      </trkpt>
      <trkpt lat="48.65021" lon="1.92623">
        <ele>170.7</ele>
        <time>2024-04-23T07:08:59Z</time>
      </trkpt>
      <trkpt lat="48.65016" lon="1.92637">
        <ele>170.6</ele>
        <time>2024-04-23T07:09:05Z</time>
      </trkpt>
      <trkpt lat="48.65012" lon="1.9265">
        <ele>170.4</ele>
        <time>2024-04-23T07:09:12Z</time>
      </trkpt>
      <trkpt lat="48.65006" lon="1.9266">
        <ele>170.2</ele>
        <time>2024-04-23T07:09:19Z</time>
      </trkpt>
      <trkpt lat="48.65" lon="1.92672">
        <ele>170</ele>
        <time>2024-04-23T07:09:26Z</time>
      </trkpt>
      <trkpt lat="48.64993" lon="1.92683">
        <ele>169.9</ele>
        <time>2024-04-23T07:09:34Z</time>
      </trkpt>
      <trkpt lat="48.64989" lon="1.92696">
        <ele>169.6</ele>
        <time>2024-04-23T07:09:41Z</time>
      </trkpt>
      <trkpt lat="48.64984" lon="1.92709">
        <ele>169.4</ele>
        <time>2024-04-23T07:09:48Z</time>
      </trkpt>
      <trkpt lat="48.64979" lon="1.92721">
        <ele>169.2</ele>
        <time>2024-04-23T07:09:55Z</time>
      </trkpt>
      <trkpt lat="48.64973" lon="1.92732">
        <ele>169</ele>
        <time>2024-04-23T07:10:01Z</time>
      </trkpt>
      <trkpt lat="48.64967" lon="1.92742">
        <ele>169</ele>
        <time>2024-04-23T07:10:07Z</time>
      </trkpt>
      <trkpt lat="48.64961" lon="1.92755">
        <ele>169</ele>
        <time>2024-04-23T07:10:14Z</time>
      </trkpt>
      <trkpt lat="48.64956" lon="1.92766">
        <ele>169</ele>
        <time>2024-04-23T07:10:19Z</time>
      </trkpt>
      <trkpt lat="48.64951" lon="1.92778">
        <ele>169</ele>
        <time>2024-04-23T07:10:24Z</time>
      </trkpt>
      <trkpt lat="48.64946" lon="1.92789">
        <ele>169</ele>
        <time>2024-04-23T07:10:30Z</time>
      </trkpt>
      <trkpt lat="48.64941" lon="1.92803">
        <ele>169</ele>
        <time>2024-04-23T07:10:37Z</time>
      </trkpt>
      <trkpt lat="48.64936" lon="1.92815">
        <ele>169.3</ele>
        <time>2024-04-23T07:10:43Z</time>
      </trkpt>
      <trkpt lat="48.6493" lon="1.92828">
        <ele>169.8</ele>
        <time>2024-04-23T07:10:50Z</time>
      </trkpt>
      <trkpt lat="48.64925" lon="1.92839">
        <ele>170</ele>
        <time>2024-04-23T07:10:57Z</time>
      </trkpt>
      <trkpt lat="48.6492" lon="1.92851">
        <ele>170</ele>
        <time>2024-04-23T07:11:04Z</time>
      </trkpt>
      <trkpt lat="48.64915" lon="1.92862">
        <ele>170</ele>
        <time>2024-04-23T07:11:10Z</time>
      </trkpt>
      <trkpt lat="48.64909" lon="1.92875">
        <ele>170</ele>
        <time>2024-04-23T07:11:17Z</time>
      </trkpt>
      <trkpt lat="48.64901" lon="1.92882">
        <ele>170</ele>
        <time>2024-04-23T07:11:24Z</time>
      </trkpt>
      <trkpt lat="48.64891" lon="1.92879">
        <ele>170</ele>
        <time>2024-04-23T07:11:30Z</time>
      </trkpt>
      <trkpt lat="48.64883" lon="1.92872">
        <ele>169.8</ele>
        <time>2024-04-23T07:11:37Z</time>
      </trkpt>
      <trkpt lat="48.64874" lon="1.92864">
        <ele>169.5</ele>
        <time>2024-04-23T07:11:43Z</time>
      </trkpt>
      <trkpt lat="48.64867" lon="1.92855">
        <ele>169.2</ele>
        <time>2024-04-23T07:11:49Z</time>
      </trkpt>
      <trkpt lat="48.64859" lon="1.92848">
        <ele>168.9</ele>
        <time>2024-04-23T07:11:55Z</time>
      </trkpt>
      <trkpt lat="48.6485" lon="1.9284">
        <ele>168.3</ele>
        <time>2024-04-23T07:12:02Z</time>
      </trkpt>
      <trkpt lat="48.64842" lon="1.92831">
        <ele>167.6</ele>
        <time>2024-04-23T07:12:08Z</time>
      </trkpt>
      <trkpt lat="48.64834" lon="1.92824">
        <ele>167</ele>
        <time>2024-04-23T07:12:14Z</time>
      </trkpt>
      <trkpt lat="48.64826" lon="1.92817">
        <ele>166.7</ele>
        <time>2024-04-23T07:12:20Z</time>
      </trkpt>
      <trkpt lat="48.64817" lon="1.92807">
        <ele>166.4</ele>
        <time>2024-04-23T07:12:27Z</time>
      </trkpt>
      <trkpt lat="48.6481" lon="1.92798">
        <ele>165.9</ele>
        <time>2024-04-23T07:12:34Z</time>
      </trkpt>
      <trkpt lat="48.64802" lon="1.9279">
        <ele>165.2</ele>
        <time>2024-04-23T07:12:41Z</time>
      </trkpt>
      <trkpt lat="48.64793" lon="1.92782">
        <ele>164.6</ele>
        <time>2024-04-23T07:12:48Z</time>
      </trkpt>
      <trkpt lat="48.64787" lon="1.92773">
        <ele>164.2</ele>
        <time>2024-04-23T07:12:54Z</time>
      </trkpt>
      <trkpt lat="48.64779" lon="1.92763">
        <ele>163.5</ele>
        <time>2024-04-23T07:13:01Z</time>
      </trkpt>
      <trkpt lat="48.64771" lon="1.92757">
        <ele>162.7</ele>
        <time>2024-04-23T07:13:08Z</time>
      </trkpt>
      <trkpt lat="48.64762" lon="1.9275">
        <ele>161.9</ele>
        <time>2024-04-23T07:13:15Z</time>
      </trkpt>
      <trkpt lat="48.64754" lon="1.92742">
        <ele>161.3</ele>
        <time>2024-04-23T07:13:23Z</time>
      </trkpt>
      <trkpt lat="48.64746" lon="1.92734">
        <ele>160.8</ele>
        <time>2024-04-23T07:13:30Z</time>
      </trkpt>
      <trkpt lat="48.64738" lon="1.92726">
        <ele>160.5</ele>
        <time>2024-04-23T07:13:36Z</time>
      </trkpt>
      <trkpt lat="48.6473" lon="1.92717">
        <ele>160.5</ele>
        <time>2024-04-23T07:13:42Z</time>
      </trkpt>
      <trkpt lat="48.64723" lon="1.92707">
        <ele>160.6</ele>
        <time>2024-04-23T07:13:48Z</time>
      </trkpt>
      <trkpt lat="48.64716" lon="1.92698">
        <ele>160.9</ele>
        <time>2024-04-23T07:13:54Z</time>
      </trkpt>
      <trkpt lat="48.64708" lon="1.9269">
        <ele>161.1</ele>
        <time>2024-04-23T07:14:01Z</time>
      </trkpt>
      <trkpt lat="48.647" lon="1.92683">
        <ele>161.3</ele>
        <time>2024-04-23T07:14:08Z</time>
      </trkpt>
      <trkpt lat="48.64692" lon="1.92675">
        <ele>161.9</ele>
        <time>2024-04-23T07:14:15Z</time>
      </trkpt>
      <trkpt lat="48.64683" lon="1.92666">
        <ele>162.8</ele>
        <time>2024-04-23T07:14:23Z</time>
      </trkpt>
      <trkpt lat="48.64675" lon="1.92657">
        <ele>163.5</ele>
        <time>2024-04-23T07:14:31Z</time>
      </trkpt>
      <trkpt lat="48.64667" lon="1.92649">
        <ele>164</ele>
        <time>2024-04-23T07:14:38Z</time>
      </trkpt>
      <trkpt lat="48.64658" lon="1.92641">
        <ele>164.3</ele>
        <time>2024-04-23T07:14:45Z</time>
      </trkpt>
      <trkpt lat="48.64651" lon="1.92631">
        <ele>164.6</ele>
        <time>2024-04-23T07:14:51Z</time>
      </trkpt>
      <trkpt lat="48.64643" lon="1.92619">
        <ele>164.8</ele>
        <time>2024-04-23T07:14:57Z</time>
      </trkpt>
      <trkpt lat="48.64636" lon="1.92609">
        <ele>165.2</ele>
        <time>2024-04-23T07:15:03Z</time>
      </trkpt>
      <trkpt lat="48.64629" lon="1.926">
        <ele>166</ele>
        <time>2024-04-23T07:15:10Z</time>
      </trkpt>
      <trkpt lat="48.6462" lon="1.92595">
        <ele>166.5</ele>
        <time>2024-04-23T07:15:20Z</time>
      </trkpt>
      <trkpt lat="48.64611" lon="1.92599">
        <ele>167</ele>
        <time>2024-04-23T07:16:40Z</time>
      </trkpt>
      <trkpt lat="48.64604" lon="1.92611">
        <ele>167</ele>
        <time>2024-04-23T07:16:48Z</time>
      </trkpt>
      <trkpt lat="48.64598" lon="1.92621">
        <ele>166.8</ele>
        <time>2024-04-23T07:16:54Z</time>
      </trkpt>
      <trkpt lat="48.64593" lon="1.92633">
        <ele>166.7</ele>
        <time>2024-04-23T07:17:01Z</time>
      </trkpt>
      <trkpt lat="48.64587" lon="1.92645">
        <ele>166.9</ele>
        <time>2024-04-23T07:17:07Z</time>
      </trkpt>
      <trkpt lat="48.64582" lon="1.92657">
        <ele>167</ele>
        <time>2024-04-23T07:17:14Z</time>
      </trkpt>
      <trkpt lat="48.64576" lon="1.92669">
        <ele>166.7</ele>
        <time>2024-04-23T07:17:22Z</time>
      </trkpt>
      <trkpt lat="48.6457" lon="1.92682">
        <ele>166.2</ele>
        <time>2024-04-23T07:17:30Z</time>
      </trkpt>
      <trkpt lat="48.64564" lon="1.92695">
        <ele>166</ele>
        <time>2024-04-23T07:17:38Z</time>
      </trkpt>
      <trkpt lat="48.64561" lon="1.92709">
        <ele>165.1</ele>
        <time>2024-04-23T07:17:45Z</time>
      </trkpt>
      <trkpt lat="48.64555" lon="1.92719">
        <ele>164.2</ele>
        <time>2024-04-23T07:17:51Z</time>
      </trkpt>
      <trkpt lat="48.64549" lon="1.9273">
        <ele>163.2</ele>
        <time>2024-04-23T07:17:58Z</time>
      </trkpt>
      <trkpt lat="48.64543" lon="1.92741">
        <ele>162.1</ele>
        <time>2024-04-23T07:18:05Z</time>
      </trkpt>
      <trkpt lat="48.64536" lon="1.92751">
        <ele>160.9</ele>
        <time>2024-04-23T07:18:12Z</time>
      </trkpt>
      <trkpt lat="48.6453" lon="1.92763">
        <ele>159.8</ele>
        <time>2024-04-23T07:18:18Z</time>
      </trkpt>
      <trkpt lat="48.64523" lon="1.92773">
        <ele>158.6</ele>
        <time>2024-04-23T07:18:24Z</time>
      </trkpt>
      <trkpt lat="48.64519" lon="1.92787">
        <ele>157.3</ele>
        <time>2024-04-23T07:18:33Z</time>
      </trkpt>
      <trkpt lat="48.64512" lon="1.92798">
        <ele>156</ele>
        <time>2024-04-23T07:18:40Z</time>
      </trkpt>
      <trkpt lat="48.64506" lon="1.92808">
        <ele>154.8</ele>
        <time>2024-04-23T07:18:47Z</time>
      </trkpt>
      <trkpt lat="48.64504" lon="1.92822">
        <ele>153.9</ele>
        <time>2024-04-23T07:18:54Z</time>
      </trkpt>
      <trkpt lat="48.645" lon="1.92834">
        <ele>153</ele>
        <time>2024-04-23T07:19:01Z</time>
      </trkpt>
      <trkpt lat="48.64496" lon="1.92848">
        <ele>152.5</ele>
        <time>2024-04-23T07:19:09Z</time>
      </trkpt>
      <trkpt lat="48.6449" lon="1.92861">
        <ele>151.6</ele>
        <time>2024-04-23T07:19:17Z</time>
      </trkpt>
      <trkpt lat="48.64485" lon="1.92874">
        <ele>150.6</ele>
        <time>2024-04-23T07:19:25Z</time>
      </trkpt>
      <trkpt lat="48.64478" lon="1.92883">
        <ele>149.7</ele>
        <time>2024-04-23T07:19:32Z</time>
      </trkpt>
      <trkpt lat="48.64471" lon="1.92892">
        <ele>148.9</ele>
        <time>2024-04-23T07:19:39Z</time>
      </trkpt>
      <trkpt lat="48.64466" lon="1.92904">
        <ele>148.6</ele>
        <time>2024-04-23T07:19:48Z</time>
      </trkpt>
      <trkpt lat="48.64462" lon="1.92917">
        <ele>148.3</ele>
        <time>2024-04-23T07:19:55Z</time>
      </trkpt>
      <trkpt lat="48.64455" lon="1.92927">
        <ele>147.8</ele>
        <time>2024-04-23T07:20:03Z</time>
      </trkpt>
      <trkpt lat="48.6445" lon="1.9294">
        <ele>147.4</ele>
        <time>2024-04-23T07:20:10Z</time>
      </trkpt>
      <trkpt lat="48.64443" lon="1.92949">
        <ele>147</ele>
        <time>2024-04-23T07:20:17Z</time>
      </trkpt>
      <trkpt lat="48.64436" lon="1.9296">
        <ele>146.7</ele>
        <time>2024-04-23T07:20:25Z</time>
      </trkpt>
      <trkpt lat="48.64432" lon="1.92974">
        <ele>146.6</ele>
        <time>2024-04-23T07:20:31Z</time>
      </trkpt>
      <trkpt lat="48.64432" lon="1.9299">
        <ele>146.6</ele>
        <time>2024-04-23T07:20:37Z</time>
      </trkpt>
      <trkpt lat="48.64434" lon="1.93004">
        <ele>146.6</ele>
        <time>2024-04-23T07:20:43Z</time>
      </trkpt>
      <trkpt lat="48.64426" lon="1.93014">
        <ele>146.3</ele>
        <time>2024-04-23T07:20:49Z</time>
      </trkpt>
      <trkpt lat="48.64423" lon="1.93028">
        <ele>146.2</ele>
        <time>2024-04-23T07:21:03Z</time>
      </trkpt>
      <trkpt lat="48.64418" lon="1.9304">
        <ele>146.1</ele>
        <time>2024-04-23T07:21:10Z</time>
      </trkpt>
      <trkpt lat="48.64414" lon="1.93054">
        <ele>146</ele>
        <time>2024-04-23T07:21:17Z</time>
      </trkpt>
      <trkpt lat="48.64408" lon="1.93067">
        <ele>145.9</ele>
        <time>2024-04-23T07:21:24Z</time>
      </trkpt>
      <trkpt lat="48.64406" lon="1.93082">
        <ele>145.6</ele>
        <time>2024-04-23T07:21:31Z</time>
      </trkpt>
      <trkpt lat="48.64407" lon="1.93096">
        <ele>145.3</ele>
        <time>2024-04-23T07:21:39Z</time>
      </trkpt>
      <trkpt lat="48.64405" lon="1.93111">
        <ele>145</ele>
        <time>2024-04-23T07:21:47Z</time>
      </trkpt>
      <trkpt lat="48.64403" lon="1.93126">
        <ele>144.7</ele>
        <time>2024-04-23T07:21:57Z</time>
      </trkpt>
      <trkpt lat="48.644" lon="1.93139">
        <ele>144.4</ele>
        <time>2024-04-23T07:22:04Z</time>
      </trkpt>
      <trkpt lat="48.64398" lon="1.93153">
        <ele>144.3</ele>
        <time>2024-04-23T07:22:11Z</time>
      </trkpt>
      <trkpt lat="48.64396" lon="1.93169">
        <ele>144.3</ele>
        <time>2024-04-23T07:22:19Z</time>
      </trkpt>
      <trkpt lat="48.64392" lon="1.93181">
        <ele>144.2</ele>
        <time>2024-04-23T07:22:26Z</time>
      </trkpt>
      <trkpt lat="48.64388" lon="1.93196">
        <ele>144</ele>
        <time>2024-04-23T07:22:34Z</time>
      </trkpt>
      <trkpt lat="48.64388" lon="1.93211">
        <ele>144</ele>
        <time>2024-04-23T07:22:41Z</time>
      </trkpt>
      <trkpt lat="48.64388" lon="1.93225">
        <ele>143.9</ele>
        <time>2024-04-23T07:22:48Z</time>
      </trkpt>
      <trkpt lat="48.64394" lon="1.93236">
        <ele>143.9</ele>
        <time>2024-04-23T07:22:55Z</time>
      </trkpt>
      <trkpt lat="48.64403" lon="1.93243">
        <ele>144.3</ele>
        <time>2024-04-23T07:23:02Z</time>
      </trkpt>
      <trkpt lat="48.64411" lon="1.93253">
        <ele>144.6</ele>
        <time>2024-04-23T07:23:10Z</time>
      </trkpt>
      <trkpt lat="48.64415" lon="1.93265">
        <ele>144.8</ele>
        <time>2024-04-23T07:23:18Z</time>
      </trkpt>
      <trkpt lat="48.64409" lon="1.93276">
        <ele>144.2</ele>
        <time>2024-04-23T07:23:29Z</time>
      </trkpt>
      <trkpt lat="48.64401" lon="1.93283">
        <ele>143.1</ele>
        <time>2024-04-23T07:23:38Z</time>
      </trkpt>
      <trkpt lat="48.64396" lon="1.93295">
        <ele>142.2</ele>
        <time>2024-04-23T07:23:48Z</time>
      </trkpt>
      <trkpt lat="48.6439" lon="1.93305">
        <ele>141.1</ele>
        <time>2024-04-23T07:23:54Z</time>
      </trkpt>
      <trkpt lat="48.64387" lon="1.93318">
        <ele>141</ele>
        <time>2024-04-23T07:24:03Z</time>
      </trkpt>
      <trkpt lat="48.64389" lon="1.93332">
        <ele>141</ele>
        <time>2024-04-23T07:24:12Z</time>
      </trkpt>
      <trkpt lat="48.64387" lon="1.93346">
        <ele>140.6</ele>
        <time>2024-04-23T07:24:21Z</time>
      </trkpt>
      <trkpt lat="48.64383" lon="1.93361">
        <ele>140.2</ele>
        <time>2024-04-23T07:24:29Z</time>
      </trkpt>
      <trkpt lat="48.64379" lon="1.93373">
        <ele>140.2</ele>
        <time>2024-04-23T07:24:35Z</time>
      </trkpt>
      <trkpt lat="48.64377" lon="1.93387">
        <ele>140</ele>
        <time>2024-04-23T07:24:42Z</time>
      </trkpt>
      <trkpt lat="48.64376" lon="1.93402">
        <ele>140</ele>
        <time>2024-04-23T07:24:49Z</time>
      </trkpt>
      <trkpt lat="48.64379" lon="1.93417">
        <ele>140</ele>
        <time>2024-04-23T07:24:57Z</time>
      </trkpt>
      <trkpt lat="48.64377" lon="1.93432">
        <ele>140</ele>
        <time>2024-04-23T07:25:04Z</time>
      </trkpt>
      <trkpt lat="48.64379" lon="1.93446">
        <ele>140</ele>
        <time>2024-04-23T07:25:12Z</time>
      </trkpt>
      <trkpt lat="48.6438" lon="1.93461">
        <ele>140.4</ele>
        <time>2024-04-23T07:25:19Z</time>
      </trkpt>
      <trkpt lat="48.64383" lon="1.93475">
        <ele>140.8</ele>
        <time>2024-04-23T07:25:28Z</time>
      </trkpt>
      <trkpt lat="48.6438" lon="1.9349">
        <ele>140.5</ele>
        <time>2024-04-23T07:25:39Z</time>
      </trkpt>
      <trkpt lat="48.64376" lon="1.93504">
        <ele>140.3</ele>
        <time>2024-04-23T07:25:47Z</time>
      </trkpt>
      <trkpt lat="48.64371" lon="1.93518">
        <ele>140.6</ele>
        <time>2024-04-23T07:25:55Z</time>
      </trkpt>
      <trkpt lat="48.64365" lon="1.9353">
        <ele>140.6</ele>
        <time>2024-04-23T07:26:03Z</time>
      </trkpt>
      <trkpt lat="48.64361" lon="1.93544">
        <ele>140.6</ele>
        <time>2024-04-23T07:26:09Z</time>
      </trkpt>
      <trkpt lat="48.64356" lon="1.93559">
        <ele>141</ele>
        <time>2024-04-23T07:26:15Z</time>
      </trkpt>
      <trkpt lat="48.64355" lon="1.93573">
        <ele>141.7</ele>
        <time>2024-04-23T07:26:22Z</time>
      </trkpt>
      <trkpt lat="48.64356" lon="1.93588">
        <ele>142.6</ele>
        <time>2024-04-23T07:26:30Z</time>
      </trkpt>
      <trkpt lat="48.64357" lon="1.93602">
        <ele>143.1</ele>
        <time>2024-04-23T07:26:38Z</time>
      </trkpt>
      <trkpt lat="48.64355" lon="1.93616">
        <ele>143.2</ele>
        <time>2024-04-23T07:26:47Z</time>
      </trkpt>
      <trkpt lat="48.64349" lon="1.93629">
        <ele>142.6</ele>
        <time>2024-04-23T07:26:54Z</time>
      </trkpt>
      <trkpt lat="48.64347" lon="1.93644">
        <ele>142.4</ele>
        <time>2024-04-23T07:27:02Z</time>
      </trkpt>
      <trkpt lat="48.64346" lon="1.93658">
        <ele>142</ele>
        <time>2024-04-23T07:27:11Z</time>
      </trkpt>
      <trkpt lat="48.64346" lon="1.93673">
        <ele>141.9</ele>
        <time>2024-04-23T07:27:19Z</time>
      </trkpt>
      <trkpt lat="48.64346" lon="1.93687">
        <ele>141.8</ele>
        <time>2024-04-23T07:27:27Z</time>
      </trkpt>
      <trkpt lat="48.64344" lon="1.93701">
        <ele>141.3</ele>
        <time>2024-04-23T07:27:37Z</time>
      </trkpt>
      <trkpt lat="48.64344" lon="1.93716">
        <ele>140.8</ele>
        <time>2024-04-23T07:27:46Z</time>
      </trkpt>
      <trkpt lat="48.64342" lon="1.93729">
        <ele>140.1</ele>
        <time>2024-04-23T07:27:52Z</time>
      </trkpt>
      <trkpt lat="48.6434" lon="1.93744">
        <ele>139.4</ele>
        <time>2024-04-23T07:27:59Z</time>
      </trkpt>
      <trkpt lat="48.64338" lon="1.93757">
        <ele>138.8</ele>
        <time>2024-04-23T07:28:05Z</time>
      </trkpt>
      <trkpt lat="48.64335" lon="1.93771">
        <ele>138.2</ele>
        <time>2024-04-23T07:28:12Z</time>
      </trkpt>
      <trkpt lat="48.64335" lon="1.93786">
        <ele>138.1</ele>
        <time>2024-04-23T07:28:19Z</time>
      </trkpt>
      <trkpt lat="48.64335" lon="1.93801">
        <ele>137.4</ele>
        <time>2024-04-23T07:28:25Z</time>
      </trkpt>
      <trkpt lat="48.64335" lon="1.93816">
        <ele>136.9</ele>
        <time>2024-04-23T07:28:31Z</time>
      </trkpt>
      <trkpt lat="48.64341" lon="1.93827">
        <ele>137.7</ele>
        <time>2024-04-23T07:28:37Z</time>
      </trkpt>
      <trkpt lat="48.64338" lon="1.93841">
        <ele>136.9</ele>
        <time>2024-04-23T07:28:43Z</time>
      </trkpt>
      <trkpt lat="48.64338" lon="1.93855">
        <ele>137.1</ele>
        <time>2024-04-23T07:28:53Z</time>
      </trkpt>
      <trkpt lat="48.64336" lon="1.93871">
        <ele>136.5</ele>
        <time>2024-04-23T07:29:00Z</time>
      </trkpt>
      <trkpt lat="48.64332" lon="1.93884">
        <ele>136</ele>
        <time>2024-04-23T07:29:09Z</time>
      </trkpt>
      <trkpt lat="48.64332" lon="1.93898">
        <ele>136</ele>
        <time>2024-04-23T07:29:16Z</time>
      </trkpt>
      <trkpt lat="48.64331" lon="1.93912">
        <ele>136</ele>
        <time>2024-04-23T07:29:22Z</time>
      </trkpt>
      <trkpt lat="48.64336" lon="1.93925">
        <ele>136.5</ele>
        <time>2024-04-23T07:29:30Z</time>
      </trkpt>
      <trkpt lat="48.64338" lon="1.9394">
        <ele>136.8</ele>
        <time>2024-04-23T07:29:38Z</time>
      </trkpt>
      <trkpt lat="48.64339" lon="1.93954">
        <ele>137.1</ele>
        <time>2024-04-23T07:29:47Z</time>
      </trkpt>
      <trkpt lat="48.64345" lon="1.93966">
        <ele>138.1</ele>
        <time>2024-04-23T07:29:54Z</time>
      </trkpt>
      <trkpt lat="48.64343" lon="1.9398">
        <ele>137.8</ele>
        <time>2024-04-23T07:30:01Z</time>
      </trkpt>
      <trkpt lat="48.6434" lon="1.93994">
        <ele>137.3</ele>
        <time>2024-04-23T07:30:08Z</time>
      </trkpt>
      <trkpt lat="48.64342" lon="1.94008">
        <ele>137.8</ele>
        <time>2024-04-23T07:30:15Z</time>
      </trkpt>
      <trkpt lat="48.64343" lon="1.94021">
        <ele>137.5</ele>
        <time>2024-04-23T07:30:22Z</time>
      </trkpt>
      <trkpt lat="48.64345" lon="1.94035">
        <ele>137.9</ele>
        <time>2024-04-23T07:30:32Z</time>
      </trkpt>
      <trkpt lat="48.64338" lon="1.94045">
        <ele>136.1</ele>
        <time>2024-04-23T07:30:40Z</time>
      </trkpt>
      <trkpt lat="48.6433" lon="1.94054">
        <ele>135</ele>
        <time>2024-04-23T07:30:49Z</time>
      </trkpt>
      <trkpt lat="48.64321" lon="1.94062">
        <ele>134.9</ele>
        <time>2024-04-23T07:30:56Z</time>
      </trkpt>
      <trkpt lat="48.64315" lon="1.94072">
        <ele>134.6</ele>
        <time>2024-04-23T07:31:05Z</time>
      </trkpt>
      <trkpt lat="48.64314" lon="1.94085">
        <ele>134.3</ele>
        <time>2024-04-23T07:31:15Z</time>
      </trkpt>
      <trkpt lat="48.64311" lon="1.94099">
        <ele>134.3</ele>
        <time>2024-04-23T07:31:22Z</time>
      </trkpt>
      <trkpt lat="48.64306" lon="1.94112">
        <ele>134</ele>
        <time>2024-04-23T07:31:31Z</time>
      </trkpt>
      <trkpt lat="48.64302" lon="1.94126">
        <ele>134</ele>
        <time>2024-04-23T07:31:37Z</time>
      </trkpt>
      <trkpt lat="48.643" lon="1.94139">
        <ele>134</ele>
        <time>2024-04-23T07:31:43Z</time>
      </trkpt>
      <trkpt lat="48.64299" lon="1.94153">
        <ele>134.3</ele>
        <time>2024-04-23T07:31:53Z</time>
      </trkpt>
      <trkpt lat="48.64302" lon="1.94167">
        <ele>134.8</ele>
        <time>2024-04-23T07:32:02Z</time>
      </trkpt>
      <trkpt lat="48.64305" lon="1.9418">
        <ele>135.4</ele>
        <time>2024-04-23T07:32:09Z</time>
      </trkpt>
      <trkpt lat="48.64306" lon="1.94194">
        <ele>136</ele>
        <time>2024-04-23T07:32:19Z</time>
      </trkpt>
      <trkpt lat="48.64299" lon="1.94206">
        <ele>135.9</ele>
        <time>2024-04-23T07:32:29Z</time>
      </trkpt>
      <trkpt lat="48.64293" lon="1.94216">
        <ele>135.5</ele>
        <time>2024-04-23T07:32:36Z</time>
      </trkpt>
      <trkpt lat="48.64286" lon="1.94227">
        <ele>134.9</ele>
        <time>2024-04-23T07:32:44Z</time>
      </trkpt>
      <trkpt lat="48.64284" lon="1.9424">
        <ele>134.7</ele>
        <time>2024-04-23T07:32:54Z</time>
      </trkpt>
      <trkpt lat="48.64284" lon="1.94255">
        <ele>134.6</ele>
        <time>2024-04-23T07:33:06Z</time>
      </trkpt>
      <trkpt lat="48.64284" lon="1.94269">
        <ele>134.3</ele>
        <time>2024-04-23T07:33:14Z</time>
      </trkpt>
      <trkpt lat="48.64286" lon="1.94283">
        <ele>134.5</ele>
        <time>2024-04-23T07:33:22Z</time>
      </trkpt>
      <trkpt lat="48.64286" lon="1.94298">
        <ele>134.5</ele>
        <time>2024-04-23T07:33:29Z</time>
      </trkpt>
      <trkpt lat="48.64285" lon="1.94312">
        <ele>134.3</ele>
        <time>2024-04-23T07:33:35Z</time>
      </trkpt>
      <trkpt lat="48.64284" lon="1.94326">
        <ele>134.1</ele>
        <time>2024-04-23T07:33:42Z</time>
      </trkpt>
      <trkpt lat="48.64287" lon="1.94339">
        <ele>134.5</ele>
        <time>2024-04-23T07:33:51Z</time>
      </trkpt>
      <trkpt lat="48.6429" lon="1.94352">
        <ele>134.9</ele>
        <time>2024-04-23T07:34:01Z</time>
      </trkpt>
      <trkpt lat="48.64288" lon="1.94367">
        <ele>134.5</ele>
        <time>2024-04-23T07:34:10Z</time>
      </trkpt>
      <trkpt lat="48.64286" lon="1.9438">
        <ele>134.1</ele>
        <time>2024-04-23T07:34:19Z</time>
      </trkpt>
      <trkpt lat="48.64284" lon="1.94395">
        <ele>134</ele>
        <time>2024-04-23T07:34:26Z</time>
      </trkpt>
      <trkpt lat="48.64283" lon="1.9441">
        <ele>134</ele>
        <time>2024-04-23T07:34:32Z</time>
      </trkpt>
      <trkpt lat="48.64283" lon="1.94425">
        <ele>134.2</ele>
        <time>2024-04-23T07:34:42Z</time>
      </trkpt>
      <trkpt lat="48.64285" lon="1.9444">
        <ele>134.9</ele>
        <time>2024-04-23T07:34:52Z</time>
      </trkpt>
      <trkpt lat="48.6429" lon="1.94452">
        <ele>135.8</ele>
        <time>2024-04-23T07:35:01Z</time>
      </trkpt>
      <trkpt lat="48.6429" lon="1.94467">
        <ele>135.8</ele>
        <time>2024-04-23T07:35:09Z</time>
      </trkpt>
      <trkpt lat="48.64293" lon="1.94481">
        <ele>136.2</ele>
        <time>2024-04-23T07:35:17Z</time>
      </trkpt>
      <trkpt lat="48.64295" lon="1.94495">
        <ele>136.5</ele>
        <time>2024-04-23T07:35:24Z</time>
      </trkpt>
      <trkpt lat="48.64297" lon="1.9451">
        <ele>136.7</ele>
        <time>2024-04-23T07:35:31Z</time>
      </trkpt>
      <trkpt lat="48.643" lon="1.94524">
        <ele>136.9</ele>
        <time>2024-04-23T07:35:38Z</time>
      </trkpt>
      <trkpt lat="48.64302" lon="1.94538">
        <ele>137.3</ele>
        <time>2024-04-23T07:35:45Z</time>
      </trkpt>
      <trkpt lat="48.64305" lon="1.94552">
        <ele>137.9</ele>
        <time>2024-04-23T07:35:53Z</time>
      </trkpt>
      <trkpt lat="48.64308" lon="1.94566">
        <ele>138.6</ele>
        <time>2024-04-23T07:36:03Z</time>
      </trkpt>
      <trkpt lat="48.64303" lon="1.94579">
        <ele>137.3</ele>
        <time>2024-04-23T07:36:11Z</time>
      </trkpt>
      <trkpt lat="48.64298" lon="1.94592">
        <ele>135.9</ele>
        <time>2024-04-23T07:36:21Z</time>
      </trkpt>
      <trkpt lat="48.64293" lon="1.94604">
        <ele>134.4</ele>
        <time>2024-04-23T07:36:27Z</time>
      </trkpt>
      <trkpt lat="48.64287" lon="1.94616">
        <ele>133</ele>
        <time>2024-04-23T07:36:32Z</time>
      </trkpt>
      <trkpt lat="48.64285" lon="1.94629">
        <ele>132.8</ele>
        <time>2024-04-23T07:36:39Z</time>
      </trkpt>
      <trkpt lat="48.64283" lon="1.94643">
        <ele>132.5</ele>
        <time>2024-04-23T07:36:46Z</time>
      </trkpt>
      <trkpt lat="48.64285" lon="1.94656">
        <ele>133.5</ele>
        <time>2024-04-23T07:36:54Z</time>
      </trkpt>
      <trkpt lat="48.64282" lon="1.94672">
        <ele>133.2</ele>
        <time>2024-04-23T07:37:02Z</time>
      </trkpt>
      <trkpt lat="48.64275" lon="1.94681">
        <ele>131.5</ele>
        <time>2024-04-23T07:37:11Z</time>
      </trkpt>
      <trkpt lat="48.64267" lon="1.9469">
        <ele>130.4</ele>
        <time>2024-04-23T07:37:18Z</time>
      </trkpt>
      <trkpt lat="48.64258" lon="1.947">
        <ele>129.3</ele>
        <time>2024-04-23T07:37:24Z</time>
      </trkpt>
      <trkpt lat="48.6425" lon="1.94705">
        <ele>128.4</ele>
        <time>2024-04-23T07:37:31Z</time>
      </trkpt>
      <trkpt lat="48.64242" lon="1.94715">
        <ele>129</ele>
        <time>2024-04-23T07:37:38Z</time>
      </trkpt>
      <trkpt lat="48.64233" lon="1.94724">
        <ele>129.8</ele>
        <time>2024-04-23T07:37:43Z</time>
      </trkpt>
      <trkpt lat="48.64225" lon="1.94734">
        <ele>130.7</ele>
        <time>2024-04-23T07:37:50Z</time>
      </trkpt>
      <trkpt lat="48.64216" lon="1.94738">
        <ele>131.1</ele>
        <time>2024-04-23T07:37:57Z</time>
      </trkpt>
      <trkpt lat="48.64206" lon="1.94737">
        <ele>131.1</ele>
        <time>2024-04-23T07:38:05Z</time>
      </trkpt>
      <trkpt lat="48.64196" lon="1.94734">
        <ele>130.8</ele>
        <time>2024-04-23T07:38:12Z</time>
      </trkpt>
      <trkpt lat="48.64186" lon="1.94733">
        <ele>130.8</ele>
        <time>2024-04-23T07:38:20Z</time>
      </trkpt>
      <trkpt lat="48.64177" lon="1.94733">
        <ele>130.8</ele>
        <time>2024-04-23T07:38:27Z</time>
      </trkpt>
      <trkpt lat="48.64167" lon="1.94733">
        <ele>130.8</ele>
        <time>2024-04-23T07:38:34Z</time>
      </trkpt>
      <trkpt lat="48.64157" lon="1.94735">
        <ele>130.7</ele>
        <time>2024-04-23T07:38:41Z</time>
      </trkpt>
      <trkpt lat="48.64148" lon="1.94737">
        <ele>130.7</ele>
        <time>2024-04-23T07:38:47Z</time>
      </trkpt>
      <trkpt lat="48.64139" lon="1.94737">
        <ele>130.5</ele>
        <time>2024-04-23T07:38:52Z</time>
      </trkpt>
      <trkpt lat="48.64128" lon="1.94738">
        <ele>130</ele>
        <time>2024-04-23T07:38:59Z</time>
      </trkpt>
      <trkpt lat="48.64118" lon="1.94742">
        <ele>129.7</ele>
        <time>2024-04-23T07:39:05Z</time>
      </trkpt>
      <trkpt lat="48.64108" lon="1.94745">
        <ele>129.5</ele>
        <time>2024-04-23T07:39:11Z</time>
      </trkpt>
      <trkpt lat="48.64099" lon="1.9475">
        <ele>129.2</ele>
        <time>2024-04-23T07:39:17Z</time>
      </trkpt>
      <trkpt lat="48.6409" lon="1.94753">
        <ele>128.5</ele>
        <time>2024-04-23T07:39:23Z</time>
      </trkpt>
      <trkpt lat="48.64081" lon="1.94758">
        <ele>127.8</ele>
        <time>2024-04-23T07:39:30Z</time>
      </trkpt>
      <trkpt lat="48.64072" lon="1.94762">
        <ele>127.2</ele>
        <time>2024-04-23T07:39:40Z</time>
      </trkpt>
      <trkpt lat="48.64068" lon="1.94774">
        <ele>126.9</ele>
        <time>2024-04-23T07:39:54Z</time>
      </trkpt>
      <trkpt lat="48.64059" lon="1.9478">
        <ele>126.3</ele>
        <time>2024-04-23T07:40:06Z</time>
      </trkpt>
      <trkpt lat="48.6405" lon="1.94785">
        <ele>126.2</ele>
        <time>2024-04-23T07:40:15Z</time>
      </trkpt>
      <trkpt lat="48.64041" lon="1.9479">
        <ele>126.2</ele>
        <time>2024-04-23T07:40:23Z</time>
      </trkpt>
      <trkpt lat="48.64034" lon="1.94801">
        <ele>126.2</ele>
        <time>2024-04-23T07:40:31Z</time>
      </trkpt>
      <trkpt lat="48.6403" lon="1.94813">
        <ele>126.1</ele>
        <time>2024-04-23T07:40:46Z</time>
      </trkpt>
      <trkpt lat="48.64021" lon="1.94817">
        <ele>125.9</ele>
        <time>2024-04-23T07:40:54Z</time>
      </trkpt>
      <trkpt lat="48.64017" lon="1.94804">
        <ele>126</ele>
        <time>2024-04-23T07:41:20Z</time>
      </trkpt>
      <trkpt lat="48.64012" lon="1.94791">
        <ele>126</ele>
        <time>2024-04-23T07:42:02Z</time>
      </trkpt>
      <trkpt lat="48.64013" lon="1.94805">
        <ele>126</ele>
        <time>2024-04-23T07:42:29Z</time>
      </trkpt>
      <trkpt lat="48.64011" lon="1.94819">
        <ele>125.7</ele>
        <time>2024-04-23T07:43:31Z</time>
      </trkpt>
      <trkpt lat="48.64008" lon="1.94832">
        <ele>125.3</ele>
        <time>2024-04-23T07:43:39Z</time>
      </trkpt>
      <trkpt lat="48.64007" lon="1.94848">
        <ele>125.2</ele>
        <time>2024-04-23T07:43:46Z</time>
      </trkpt>
      <trkpt lat="48.64006" lon="1.94862">
        <ele>125.2</ele>
        <time>2024-04-23T07:43:51Z</time>
      </trkpt>
      <trkpt lat="48.64005" lon="1.94876">
        <ele>125.1</ele>
        <time>2024-04-23T07:43:56Z</time>
      </trkpt>
      <trkpt lat="48.64002" lon="1.94891">
        <ele>124.9</ele>
        <time>2024-04-23T07:44:02Z</time>
      </trkpt>
      <trkpt lat="48.64" lon="1.94905">
        <ele>124.4</ele>
        <time>2024-04-23T07:44:08Z</time>
      </trkpt>
      <trkpt lat="48.63999" lon="1.9492">
        <ele>124</ele>
        <time>2024-04-23T07:44:15Z</time>
      </trkpt>
      <trkpt lat="48.63997" lon="1.94934">
        <ele>123.9</ele>
        <time>2024-04-23T07:44:21Z</time>
      </trkpt>
      <trkpt lat="48.63992" lon="1.94948">
        <ele>123.7</ele>
        <time>2024-04-23T07:44:27Z</time>
      </trkpt>
      <trkpt lat="48.63991" lon="1.94961">
        <ele>123.7</ele>
        <time>2024-04-23T07:44:34Z</time>
      </trkpt>
      <trkpt lat="48.63991" lon="1.94975">
        <ele>123.7</ele>
        <time>2024-04-23T07:44:41Z</time>
      </trkpt>
      <trkpt lat="48.63992" lon="1.9499">
        <ele>123.9</ele>
        <time>2024-04-23T07:44:50Z</time>
      </trkpt>
      <trkpt lat="48.6399" lon="1.95004">
        <ele>124.1</ele>
        <time>2024-04-23T07:44:58Z</time>
      </trkpt>
      <trkpt lat="48.63982" lon="1.95012">
        <ele>124.3</ele>
        <time>2024-04-23T07:45:05Z</time>
      </trkpt>
      <trkpt lat="48.63973" lon="1.95018">
        <ele>124.6</ele>
        <time>2024-04-23T07:45:12Z</time>
      </trkpt>
      <trkpt lat="48.63971" lon="1.95032">
        <ele>124.9</ele>
        <time>2024-04-23T07:45:25Z</time>
      </trkpt>
      <trkpt lat="48.63977" lon="1.95045">
        <ele>124.9</ele>
        <time>2024-04-23T07:45:32Z</time>
      </trkpt>
      <trkpt lat="48.63984" lon="1.95053">
        <ele>125</ele>
        <time>2024-04-23T07:45:39Z</time>
      </trkpt>
      <trkpt lat="48.63994" lon="1.95057">
        <ele>125</ele>
        <time>2024-04-23T07:45:48Z</time>
      </trkpt>
      <trkpt lat="48.63999" lon="1.95071">
        <ele>125</ele>
        <time>2024-04-23T07:46:07Z</time>
      </trkpt>
      <trkpt lat="48.64004" lon="1.95083">
        <ele>124.7</ele>
        <time>2024-04-23T07:46:14Z</time>
      </trkpt>
      <trkpt lat="48.64009" lon="1.95095">
        <ele>124.8</ele>
        <time>2024-04-23T07:46:21Z</time>
      </trkpt>
      <trkpt lat="48.64014" lon="1.95108">
        <ele>124.9</ele>
        <time>2024-04-23T07:46:28Z</time>
      </trkpt>
      <trkpt lat="48.64017" lon="1.95121">
        <ele>125.4</ele>
        <time>2024-04-23T07:46:35Z</time>
      </trkpt>
      <trkpt lat="48.64021" lon="1.95135">
        <ele>126.2</ele>
        <time>2024-04-23T07:46:43Z</time>
      </trkpt>
      <trkpt lat="48.64025" lon="1.95148">
        <ele>127.2</ele>
        <time>2024-04-23T07:46:52Z</time>
      </trkpt>
      <trkpt lat="48.64034" lon="1.95152">
        <ele>127.4</ele>
        <time>2024-04-23T07:47:00Z</time>
      </trkpt>
      <trkpt lat="48.64044" lon="1.95152">
        <ele>127.4</ele>
        <time>2024-04-23T07:47:08Z</time>
      </trkpt>
      <trkpt lat="48.64053" lon="1.9515">
        <ele>127.2</ele>
        <time>2024-04-23T07:47:15Z</time>
      </trkpt>
      <trkpt lat="48.64062" lon="1.95146">
        <ele>127.1</ele>
        <time>2024-04-23T07:47:22Z</time>
      </trkpt>
      <trkpt lat="48.64072" lon="1.95141">
        <ele>126.9</ele>
        <time>2024-04-23T07:47:30Z</time>
      </trkpt>
      <trkpt lat="48.64081" lon="1.95136">
        <ele>126.7</ele>
        <time>2024-04-23T07:47:39Z</time>
      </trkpt>
      <trkpt lat="48.6409" lon="1.95139">
        <ele>127.2</ele>
        <time>2024-04-23T07:47:46Z</time>
      </trkpt>
      <trkpt lat="48.64099" lon="1.95145">
        <ele>128.5</ele>
        <time>2024-04-23T07:47:55Z</time>
      </trkpt>
      <trkpt lat="48.64108" lon="1.95148">
        <ele>129.2</ele>
        <time>2024-04-23T07:48:01Z</time>
      </trkpt>
      <trkpt lat="48.64118" lon="1.95149">
        <ele>129.2</ele>
        <time>2024-04-23T07:48:07Z</time>
      </trkpt>
      <trkpt lat="48.64127" lon="1.95151">
        <ele>129.1</ele>
        <time>2024-04-23T07:48:14Z</time>
      </trkpt>
      <trkpt lat="48.64137" lon="1.95153">
        <ele>129.1</ele>
        <time>2024-04-23T07:48:21Z</time>
      </trkpt>
      <trkpt lat="48.64146" lon="1.95156">
        <ele>129.4</ele>
        <time>2024-04-23T07:48:29Z</time>
      </trkpt>
      <trkpt lat="48.64157" lon="1.95153">
        <ele>128.7</ele>
        <time>2024-04-23T07:48:35Z</time>
      </trkpt>
      <trkpt lat="48.64167" lon="1.9515">
        <ele>127.9</ele>
        <time>2024-04-23T07:48:43Z</time>
      </trkpt>
      <trkpt lat="48.64176" lon="1.95152">
        <ele>128.1</ele>
        <time>2024-04-23T07:48:49Z</time>
      </trkpt>
      <trkpt lat="48.64186" lon="1.95156">
        <ele>128.7</ele>
        <time>2024-04-23T07:49:00Z</time>
      </trkpt>
      <trkpt lat="48.64196" lon="1.95163">
        <ele>129.4</ele>
        <time>2024-04-23T07:49:04Z</time>
      </trkpt>
      <trkpt lat="48.64204" lon="1.95172">
        <ele>130.1</ele>
        <time>2024-04-23T07:49:08Z</time>
      </trkpt>
      <trkpt lat="48.64212" lon="1.95182">
        <ele>131.1</ele>
        <time>2024-04-23T07:49:13Z</time>
      </trkpt>
      <trkpt lat="48.6422" lon="1.95192">
        <ele>131.9</ele>
        <time>2024-04-23T07:49:20Z</time>
      </trkpt>
      <trkpt lat="48.64227" lon="1.95202">
        <ele>132.6</ele>
        <time>2024-04-23T07:49:26Z</time>
      </trkpt>
      <trkpt lat="48.64232" lon="1.95213">
        <ele>133.7</ele>
        <time>2024-04-23T07:49:34Z</time>
      </trkpt>
      <trkpt lat="48.64234" lon="1.95228">
        <ele>135.8</ele>
        <time>2024-04-23T07:49:45Z</time>
      </trkpt>
      <trkpt lat="48.64241" lon="1.95238">
        <ele>136.9</ele>
        <time>2024-04-23T07:49:52Z</time>
      </trkpt>
      <trkpt lat="48.64249" lon="1.95248">
        <ele>137.7</ele>
        <time>2024-04-23T07:49:58Z</time>
      </trkpt>
      <trkpt lat="48.64256" lon="1.95257">
        <ele>138.5</ele>
        <time>2024-04-23T07:50:03Z</time>
      </trkpt>
      <trkpt lat="48.64263" lon="1.95267">
        <ele>139.8</ele>
        <time>2024-04-23T07:50:09Z</time>
      </trkpt>
      <trkpt lat="48.64271" lon="1.95274">
        <ele>140.6</ele>
        <time>2024-04-23T07:50:16Z</time>
      </trkpt>
      <trkpt lat="48.6428" lon="1.95279">
        <ele>140.9</ele>
        <time>2024-04-23T07:50:21Z</time>
      </trkpt>
      <trkpt lat="48.64289" lon="1.95288">
        <ele>141.7</ele>
        <time>2024-04-23T07:50:30Z</time>
      </trkpt>
      <trkpt lat="48.64298" lon="1.95292">
        <ele>140.9</ele>
        <time>2024-04-23T07:50:35Z</time>
      </trkpt>
      <trkpt lat="48.64307" lon="1.95298">
        <ele>141</ele>
        <time>2024-04-23T07:50:42Z</time>
      </trkpt>
      <trkpt lat="48.64317" lon="1.95298">
        <ele>139.2</ele>
        <time>2024-04-23T07:50:48Z</time>
      </trkpt>
      <trkpt lat="48.64325" lon="1.9529">
        <ele>135.9</ele>
        <time>2024-04-23T07:50:53Z</time>
      </trkpt>
      <trkpt lat="48.64334" lon="1.95287">
        <ele>133.7</ele>
        <time>2024-04-23T07:50:57Z</time>
      </trkpt>
      <trkpt lat="48.64343" lon="1.95288">
        <ele>133.5</ele>
        <time>2024-04-23T07:51:01Z</time>
      </trkpt>
      <trkpt lat="48.64353" lon="1.95288">
        <ele>133.2</ele>
        <time>2024-04-23T07:51:06Z</time>
      </trkpt>
      <trkpt lat="48.64364" lon="1.95289">
        <ele>133.4</ele>
        <time>2024-04-23T07:51:11Z</time>
      </trkpt>
      <trkpt lat="48.64374" lon="1.95291">
        <ele>134.2</ele>
        <time>2024-04-23T07:51:19Z</time>
      </trkpt>
      <trkpt lat="48.64383" lon="1.95292">
        <ele>134.8</ele>
        <time>2024-04-23T07:51:24Z</time>
      </trkpt>
      <trkpt lat="48.64392" lon="1.95296">
        <ele>136.2</ele>
        <time>2024-04-23T07:51:31Z</time>
      </trkpt>
      <trkpt lat="48.64402" lon="1.95294">
        <ele>136.8</ele>
        <time>2024-04-23T07:51:38Z</time>
      </trkpt>
      <trkpt lat="48.64413" lon="1.95294">
        <ele>137.8</ele>
        <time>2024-04-23T07:51:44Z</time>
      </trkpt>
      <trkpt lat="48.64423" lon="1.95295">
        <ele>138.4</ele>
        <time>2024-04-23T07:51:50Z</time>
      </trkpt>
      <trkpt lat="48.64432" lon="1.95297">
        <ele>139.5</ele>
        <time>2024-04-23T07:51:56Z</time>
      </trkpt>
      <trkpt lat="48.64442" lon="1.953">
        <ele>140.4</ele>
        <time>2024-04-23T07:52:04Z</time>
      </trkpt>
      <trkpt lat="48.64451" lon="1.95303">
        <ele>141</ele>
        <time>2024-04-23T07:52:11Z</time>
      </trkpt>
      <trkpt lat="48.6446" lon="1.95312">
        <ele>142</ele>
        <time>2024-04-23T07:52:18Z</time>
      </trkpt>
      <trkpt lat="48.64466" lon="1.95323">
        <ele>143</ele>
        <time>2024-04-23T07:52:25Z</time>
      </trkpt>
      <trkpt lat="48.64474" lon="1.95332">
        <ele>143.5</ele>
        <time>2024-04-23T07:52:32Z</time>
      </trkpt>
      <trkpt lat="48.64475" lon="1.95346">
        <ele>144.4</ele>
        <time>2024-04-23T07:52:41Z</time>
      </trkpt>
      <trkpt lat="48.64479" lon="1.9536">
        <ele>144.7</ele>
        <time>2024-04-23T07:52:49Z</time>
      </trkpt>
      <trkpt lat="48.64481" lon="1.95374">
        <ele>145.1</ele>
        <time>2024-04-23T07:52:59Z</time>
      </trkpt>
      <trkpt lat="48.64488" lon="1.95383">
        <ele>144.5</ele>
        <time>2024-04-23T07:53:22Z</time>
      </trkpt>
      <trkpt lat="48.64491" lon="1.95396">
        <ele>144.5</ele>
        <time>2024-04-23T07:57:40Z</time>
      </trkpt>
      <trkpt lat="48.64497" lon="1.9541">
        <ele>144.2</ele>
        <time>2024-04-23T07:57:50Z</time>
      </trkpt>
      <trkpt lat="48.64497" lon="1.95424">
        <ele>144.7</ele>
        <time>2024-04-23T07:57:59Z</time>
      </trkpt>
      <trkpt lat="48.64499" lon="1.95438">
        <ele>145</ele>
        <time>2024-04-23T07:58:07Z</time>
      </trkpt>
      <trkpt lat="48.64508" lon="1.95439">
        <ele>143.1</ele>
        <time>2024-04-23T07:58:29Z</time>
      </trkpt>
      <trkpt lat="48.64516" lon="1.95434">
        <ele>140.9</ele>
        <time>2024-04-23T07:58:34Z</time>
      </trkpt>
      <trkpt lat="48.64522" lon="1.95423">
        <ele>138.8</ele>
        <time>2024-04-23T07:58:41Z</time>
      </trkpt>
      <trkpt lat="48.64529" lon="1.95414">
        <ele>136.6</ele>
        <time>2024-04-23T07:58:47Z</time>
      </trkpt>
      <trkpt lat="48.64539" lon="1.9541">
        <ele>134.7</ele>
        <time>2024-04-23T07:58:53Z</time>
      </trkpt>
      <trkpt lat="48.64548" lon="1.95411">
        <ele>133.1</ele>
        <time>2024-04-23T07:58:59Z</time>
      </trkpt>
      <trkpt lat="48.64558" lon="1.95415">
        <ele>131.9</ele>
        <time>2024-04-23T07:59:05Z</time>
      </trkpt>
      <trkpt lat="48.64568" lon="1.95417">
        <ele>131.6</ele>
        <time>2024-04-23T07:59:11Z</time>
      </trkpt>
      <trkpt lat="48.64577" lon="1.95418">
        <ele>131.4</ele>
        <time>2024-04-23T07:59:17Z</time>
      </trkpt>
      <trkpt lat="48.64587" lon="1.95422">
        <ele>131.7</ele>
        <time>2024-04-23T07:59:23Z</time>
      </trkpt>
      <trkpt lat="48.64596" lon="1.95427">
        <ele>132.5</ele>
        <time>2024-04-23T07:59:30Z</time>
      </trkpt>
      <trkpt lat="48.64605" lon="1.95433">
        <ele>133.3</ele>
        <time>2024-04-23T07:59:37Z</time>
      </trkpt>
      <trkpt lat="48.64614" lon="1.95427">
        <ele>132.6</ele>
        <time>2024-04-23T07:59:44Z</time>
      </trkpt>
      <trkpt lat="48.64623" lon="1.95421">
        <ele>132.5</ele>
        <time>2024-04-23T07:59:50Z</time>
      </trkpt>
      <trkpt lat="48.64633" lon="1.95418">
        <ele>132.7</ele>
        <time>2024-04-23T07:59:56Z</time>
      </trkpt>
      <trkpt lat="48.64642" lon="1.95416">
        <ele>133.5</ele>
        <time>2024-04-23T08:00:03Z</time>
      </trkpt>
      <trkpt lat="48.64652" lon="1.95411">
        <ele>134.8</ele>
        <time>2024-04-23T08:00:09Z</time>
      </trkpt>
      <trkpt lat="48.64659" lon="1.95403">
        <ele>135.6</ele>
        <time>2024-04-23T08:00:14Z</time>
      </trkpt>
      <trkpt lat="48.64668" lon="1.95398">
        <ele>137</ele>
        <time>2024-04-23T08:00:20Z</time>
      </trkpt>
      <trkpt lat="48.64676" lon="1.95391">
        <ele>138.3</ele>
        <time>2024-04-23T08:00:26Z</time>
      </trkpt>
      <trkpt lat="48.64684" lon="1.95382">
        <ele>139</ele>
        <time>2024-04-23T08:00:33Z</time>
      </trkpt>
      <trkpt lat="48.6469" lon="1.95372">
        <ele>138.9</ele>
        <time>2024-04-23T08:00:39Z</time>
      </trkpt>
      <trkpt lat="48.64698" lon="1.95361">
        <ele>138.5</ele>
        <time>2024-04-23T08:00:46Z</time>
      </trkpt>
      <trkpt lat="48.64706" lon="1.95356">
        <ele>138.9</ele>
        <time>2024-04-23T08:00:53Z</time>
      </trkpt>
      <trkpt lat="48.64712" lon="1.95345">
        <ele>137.8</ele>
        <time>2024-04-23T08:01:00Z</time>
      </trkpt>
      <trkpt lat="48.64722" lon="1.95342">
        <ele>137.8</ele>
        <time>2024-04-23T08:01:08Z</time>
      </trkpt>
      <trkpt lat="48.64731" lon="1.95339">
        <ele>137.7</ele>
        <time>2024-04-23T08:01:18Z</time>
      </trkpt>
      <trkpt lat="48.6474" lon="1.95333">
        <ele>136.6</ele>
        <time>2024-04-23T08:01:25Z</time>
      </trkpt>
      <trkpt lat="48.6475" lon="1.9533">
        <ele>136.6</ele>
        <time>2024-04-23T08:01:32Z</time>
      </trkpt>
      <trkpt lat="48.64759" lon="1.9533">
        <ele>136.5</ele>
        <time>2024-04-23T08:01:38Z</time>
      </trkpt>
      <trkpt lat="48.64767" lon="1.95338">
        <ele>138.1</ele>
        <time>2024-04-23T08:01:45Z</time>
      </trkpt>
      <trkpt lat="48.64777" lon="1.95341">
        <ele>138.6</ele>
        <time>2024-04-23T08:01:54Z</time>
      </trkpt>
      <trkpt lat="48.64785" lon="1.95348">
        <ele>139.8</ele>
        <time>2024-04-23T08:02:03Z</time>
      </trkpt>
      <trkpt lat="48.64795" lon="1.95352">
        <ele>140.3</ele>
        <time>2024-04-23T08:02:11Z</time>
      </trkpt>
      <trkpt lat="48.64804" lon="1.95352">
        <ele>139.9</ele>
        <time>2024-04-23T08:02:18Z</time>
      </trkpt>
      <trkpt lat="48.64815" lon="1.95351">
        <ele>139.3</ele>
        <time>2024-04-23T08:02:25Z</time>
      </trkpt>
      <trkpt lat="48.64825" lon="1.95352">
        <ele>139.2</ele>
        <time>2024-04-23T08:02:31Z</time>
      </trkpt>
      <trkpt lat="48.64834" lon="1.95354">
        <ele>139.5</ele>
        <time>2024-04-23T08:02:37Z</time>
      </trkpt>
      <trkpt lat="48.64844" lon="1.95356">
        <ele>139.8</ele>
        <time>2024-04-23T08:02:44Z</time>
      </trkpt>
      <trkpt lat="48.64853" lon="1.95361">
        <ele>140.9</ele>
        <time>2024-04-23T08:02:50Z</time>
      </trkpt>
      <trkpt lat="48.64863" lon="1.9536">
        <ele>140.7</ele>
        <time>2024-04-23T08:02:56Z</time>
      </trkpt>
      <trkpt lat="48.64872" lon="1.95362">
        <ele>141.2</ele>
        <time>2024-04-23T08:03:03Z</time>
      </trkpt>
      <trkpt lat="48.64882" lon="1.95364">
        <ele>141.7</ele>
        <time>2024-04-23T08:03:11Z</time>
      </trkpt>
      <trkpt lat="48.64891" lon="1.95365">
        <ele>141.9</ele>
        <time>2024-04-23T08:03:20Z</time>
      </trkpt>
      <trkpt lat="48.64901" lon="1.95369">
        <ele>143</ele>
        <time>2024-04-23T08:03:27Z</time>
      </trkpt>
      <trkpt lat="48.6491" lon="1.95367">
        <ele>142.5</ele>
        <time>2024-04-23T08:03:33Z</time>
      </trkpt>
      <trkpt lat="48.64919" lon="1.95364">
        <ele>141.7</ele>
        <time>2024-04-23T08:03:39Z</time>
      </trkpt>
      <trkpt lat="48.64929" lon="1.95361">
        <ele>140.9</ele>
        <time>2024-04-23T08:03:45Z</time>
      </trkpt>
      <trkpt lat="48.64939" lon="1.95359">
        <ele>140.7</ele>
        <time>2024-04-23T08:03:52Z</time>
      </trkpt>
      <trkpt lat="48.64949" lon="1.9536">
        <ele>140.4</ele>
        <time>2024-04-23T08:03:58Z</time>
      </trkpt>
      <trkpt lat="48.64959" lon="1.95362">
        <ele>140.2</ele>
        <time>2024-04-23T08:04:04Z</time>
      </trkpt>
      <trkpt lat="48.64969" lon="1.95364">
        <ele>139.8</ele>
        <time>2024-04-23T08:04:11Z</time>
      </trkpt>
      <trkpt lat="48.64979" lon="1.95361">
        <ele>139</ele>
        <time>2024-04-23T08:04:18Z</time>
      </trkpt>
      <trkpt lat="48.64988" lon="1.95364">
        <ele>139.5</ele>
        <time>2024-04-23T08:04:26Z</time>
      </trkpt>
      <trkpt lat="48.64999" lon="1.95363">
        <ele>139.4</ele>
        <time>2024-04-23T08:04:33Z</time>
      </trkpt>
      <trkpt lat="48.65009" lon="1.95365">
        <ele>139.4</ele>
        <time>2024-04-23T08:04:39Z</time>
      </trkpt>
      <trkpt lat="48.65018" lon="1.9537">
        <ele>140.2</ele>
        <time>2024-04-23T08:04:45Z</time>
      </trkpt>
      <trkpt lat="48.65028" lon="1.95367">
        <ele>139.3</ele>
        <time>2024-04-23T08:04:52Z</time>
      </trkpt>
      <trkpt lat="48.65038" lon="1.95363">
        <ele>139.2</ele>
        <time>2024-04-23T08:04:59Z</time>
      </trkpt>
      <trkpt lat="48.65048" lon="1.95362">
        <ele>139.7</ele>
        <time>2024-04-23T08:05:06Z</time>
      </trkpt>
      <trkpt lat="48.65056" lon="1.95357">
        <ele>139.7</ele>
        <time>2024-04-23T08:05:12Z</time>
      </trkpt>
      <trkpt lat="48.65066" lon="1.95354">
        <ele>140.1</ele>
        <time>2024-04-23T08:05:17Z</time>
      </trkpt>
      <trkpt lat="48.65075" lon="1.95348">
        <ele>140</ele>
        <time>2024-04-23T08:05:23Z</time>
      </trkpt>
      <trkpt lat="48.65084" lon="1.95347">
        <ele>140.6</ele>
        <time>2024-04-23T08:05:30Z</time>
      </trkpt>
      <trkpt lat="48.65093" lon="1.95343">
        <ele>141.5</ele>
        <time>2024-04-23T08:05:37Z</time>
      </trkpt>
      <trkpt lat="48.65102" lon="1.95334">
        <ele>141.4</ele>
        <time>2024-04-23T08:05:44Z</time>
      </trkpt>
      <trkpt lat="48.65108" lon="1.95322">
        <ele>141.3</ele>
        <time>2024-04-23T08:05:50Z</time>
      </trkpt>
      <trkpt lat="48.65114" lon="1.95311">
        <ele>141.4</ele>
        <time>2024-04-23T08:05:56Z</time>
      </trkpt>
      <trkpt lat="48.65119" lon="1.95299">
        <ele>141.8</ele>
        <time>2024-04-23T08:06:02Z</time>
      </trkpt>
      <trkpt lat="48.65125" lon="1.95286">
        <ele>142.5</ele>
        <time>2024-04-23T08:06:09Z</time>
      </trkpt>
      <trkpt lat="48.65129" lon="1.95273">
        <ele>142.4</ele>
        <time>2024-04-23T08:06:15Z</time>
      </trkpt>
      <trkpt lat="48.65135" lon="1.95263">
        <ele>142.6</ele>
        <time>2024-04-23T08:06:22Z</time>
      </trkpt>
      <trkpt lat="48.65142" lon="1.95254">
        <ele>142.8</ele>
        <time>2024-04-23T08:06:29Z</time>
      </trkpt>
      <trkpt lat="48.65151" lon="1.95251">
        <ele>143.4</ele>
        <time>2024-04-23T08:06:37Z</time>
      </trkpt>
      <trkpt lat="48.6516" lon="1.95257">
        <ele>145.2</ele>
        <time>2024-04-23T08:06:47Z</time>
      </trkpt>
      <trkpt lat="48.65169" lon="1.95262">
        <ele>146.8</ele>
        <time>2024-04-23T08:06:56Z</time>
      </trkpt>
      <trkpt lat="48.65175" lon="1.95273">
        <ele>148.6</ele>
        <time>2024-04-23T08:07:08Z</time>
      </trkpt>
      <trkpt lat="48.65181" lon="1.95285">
        <ele>150.6</ele>
        <time>2024-04-23T08:07:18Z</time>
      </trkpt>
      <trkpt lat="48.65188" lon="1.95294">
        <ele>152.1</ele>
        <time>2024-04-23T08:07:27Z</time>
      </trkpt>
      <trkpt lat="48.65194" lon="1.95306">
        <ele>154</ele>
        <time>2024-04-23T08:07:37Z</time>
      </trkpt>
      <trkpt lat="48.65201" lon="1.95314">
        <ele>155.5</ele>
        <time>2024-04-23T08:07:48Z</time>
      </trkpt>
      <trkpt lat="48.65206" lon="1.95326">
        <ele>157.6</ele>
        <time>2024-04-23T08:07:57Z</time>
      </trkpt>
      <trkpt lat="48.65213" lon="1.95334">
        <ele>159.2</ele>
        <time>2024-04-23T08:08:04Z</time>
      </trkpt>
      <trkpt lat="48.65222" lon="1.9534">
        <ele>160.2</ele>
        <time>2024-04-23T08:08:12Z</time>
      </trkpt>
      <trkpt lat="48.6523" lon="1.95349">
        <ele>161.4</ele>
        <time>2024-04-23T08:08:22Z</time>
      </trkpt>
      <trkpt lat="48.6524" lon="1.95355">
        <ele>161.7</ele>
        <time>2024-04-23T08:08:29Z</time>
      </trkpt>
      <trkpt lat="48.65249" lon="1.9536">
        <ele>161.9</ele>
        <time>2024-04-23T08:08:37Z</time>
      </trkpt>
      <trkpt lat="48.65257" lon="1.95369">
        <ele>162.5</ele>
        <time>2024-04-23T08:08:46Z</time>
      </trkpt>
      <trkpt lat="48.65264" lon="1.95377">
        <ele>163.1</ele>
        <time>2024-04-23T08:08:56Z</time>
      </trkpt>
      <trkpt lat="48.6527" lon="1.95388">
        <ele>164.5</ele>
        <time>2024-04-23T08:09:06Z</time>
      </trkpt>
      <trkpt lat="48.65277" lon="1.95396">
        <ele>164.8</ele>
        <time>2024-04-23T08:09:13Z</time>
      </trkpt>
      <trkpt lat="48.65284" lon="1.95406">
        <ele>165.2</ele>
        <time>2024-04-23T08:09:20Z</time>
      </trkpt>
      <trkpt lat="48.65293" lon="1.95413">
        <ele>165.4</ele>
        <time>2024-04-23T08:09:27Z</time>
      </trkpt>
      <trkpt lat="48.65299" lon="1.95424">
        <ele>166</ele>
        <time>2024-04-23T08:09:34Z</time>
      </trkpt>
      <trkpt lat="48.65305" lon="1.95435">
        <ele>166.3</ele>
        <time>2024-04-23T08:09:40Z</time>
      </trkpt>
      <trkpt lat="48.65309" lon="1.95447">
        <ele>167</ele>
        <time>2024-04-23T08:09:47Z</time>
      </trkpt>
      <trkpt lat="48.65309" lon="1.95462">
        <ele>168</ele>
        <time>2024-04-23T08:09:55Z</time>
      </trkpt>
      <trkpt lat="48.65307" lon="1.95476">
        <ele>168.9</ele>
        <time>2024-04-23T08:10:02Z</time>
      </trkpt>
      <trkpt lat="48.65309" lon="1.95491">
        <ele>168.9</ele>
        <time>2024-04-23T08:10:10Z</time>
      </trkpt>
      <trkpt lat="48.65309" lon="1.95506">
        <ele>169.1</ele>
        <time>2024-04-23T08:10:19Z</time>
      </trkpt>
      <trkpt lat="48.65303" lon="1.95517">
        <ele>169.7</ele>
        <time>2024-04-23T08:10:26Z</time>
      </trkpt>
      <trkpt lat="48.65306" lon="1.95531">
        <ele>170</ele>
        <time>2024-04-23T08:10:34Z</time>
      </trkpt>
      <trkpt lat="48.65309" lon="1.95544">
        <ele>169.9</ele>
        <time>2024-04-23T08:10:41Z</time>
      </trkpt>
      <trkpt lat="48.65315" lon="1.95556">
        <ele>169.7</ele>
        <time>2024-04-23T08:10:48Z</time>
      </trkpt>
      <trkpt lat="48.65318" lon="1.95569">
        <ele>169.3</ele>
        <time>2024-04-23T08:10:53Z</time>
      </trkpt>
      <trkpt lat="48.65318" lon="1.95585">
        <ele>169.1</ele>
        <time>2024-04-23T08:11:00Z</time>
      </trkpt>
      <trkpt lat="48.6532" lon="1.95598">
        <ele>169</ele>
        <time>2024-04-23T08:11:06Z</time>
      </trkpt>
      <trkpt lat="48.65319" lon="1.95613">
        <ele>169</ele>
        <time>2024-04-23T08:11:13Z</time>
      </trkpt>
      <trkpt lat="48.65317" lon="1.95628">
        <ele>168.8</ele>
        <time>2024-04-23T08:11:18Z</time>
      </trkpt>
      <trkpt lat="48.65319" lon="1.95642">
        <ele>168.4</ele>
        <time>2024-04-23T08:11:23Z</time>
      </trkpt>
      <trkpt lat="48.6532" lon="1.95656">
        <ele>168.2</ele>
        <time>2024-04-23T08:11:30Z</time>
      </trkpt>
      <trkpt lat="48.65322" lon="1.95671">
        <ele>167.8</ele>
        <time>2024-04-23T08:11:37Z</time>
      </trkpt>
      <trkpt lat="48.65328" lon="1.95682">
        <ele>167.3</ele>
        <time>2024-04-23T08:11:42Z</time>
      </trkpt>
      <trkpt lat="48.65335" lon="1.95691">
        <ele>166.9</ele>
        <time>2024-04-23T08:11:47Z</time>
      </trkpt>
      <trkpt lat="48.65335" lon="1.95706">
        <ele>166.9</ele>
        <time>2024-04-23T08:11:56Z</time>
      </trkpt>
      <trkpt lat="48.65332" lon="1.95719">
        <ele>167</ele>
        <time>2024-04-23T08:12:07Z</time>
      </trkpt>
      <trkpt lat="48.65331" lon="1.95733">
        <ele>167.1</ele>
        <time>2024-04-23T08:12:15Z</time>
      </trkpt>
      <trkpt lat="48.65333" lon="1.95747">
        <ele>167</ele>
        <time>2024-04-23T08:12:23Z</time>
      </trkpt>
      <trkpt lat="48.65334" lon="1.95762">
        <ele>167</ele>
        <time>2024-04-23T08:12:31Z</time>
      </trkpt>
      <trkpt lat="48.65337" lon="1.95776">
        <ele>166.7</ele>
        <time>2024-04-23T08:12:38Z</time>
      </trkpt>
      <trkpt lat="48.65341" lon="1.9579">
        <ele>166.6</ele>
        <time>2024-04-23T08:12:44Z</time>
      </trkpt>
      <trkpt lat="48.65344" lon="1.95804">
        <ele>166.6</ele>
        <time>2024-04-23T08:12:51Z</time>
      </trkpt>
      <trkpt lat="48.65341" lon="1.95817">
        <ele>167.1</ele>
        <time>2024-04-23T08:14:14Z</time>
      </trkpt>
      <trkpt lat="48.65332" lon="1.95814">
        <ele>167.3</ele>
        <time>2024-04-23T08:17:41Z</time>
      </trkpt>
      <trkpt lat="48.65324" lon="1.95809">
        <ele>167.4</ele>
        <time>2024-04-23T08:17:48Z</time>
      </trkpt>
      <trkpt lat="48.65315" lon="1.95805">
        <ele>167.7</ele>
        <time>2024-04-23T08:17:56Z</time>
      </trkpt>
      <trkpt lat="48.65305" lon="1.95803">
        <ele>168</ele>
        <time>2024-04-23T08:18:03Z</time>
      </trkpt>
      <trkpt lat="48.65297" lon="1.95796">
        <ele>168.3</ele>
        <time>2024-04-23T08:18:10Z</time>
      </trkpt>
      <trkpt lat="48.65288" lon="1.95791">
        <ele>168.6</ele>
        <time>2024-04-23T08:18:16Z</time>
      </trkpt>
      <trkpt lat="48.65279" lon="1.95787">
        <ele>168.9</ele>
        <time>2024-04-23T08:18:22Z</time>
      </trkpt>
      <trkpt lat="48.6527" lon="1.95783">
        <ele>169.3</ele>
        <time>2024-04-23T08:18:29Z</time>
      </trkpt>
      <trkpt lat="48.65261" lon="1.95776">
        <ele>169.6</ele>
        <time>2024-04-23T08:18:36Z</time>
      </trkpt>
      <trkpt lat="48.65253" lon="1.95767">
        <ele>170.2</ele>
        <time>2024-04-23T08:18:44Z</time>
      </trkpt>
      <trkpt lat="48.65244" lon="1.9576">
        <ele>170.9</ele>
        <time>2024-04-23T08:18:49Z</time>
      </trkpt>
      <trkpt lat="48.65235" lon="1.95754">
        <ele>171.5</ele>
        <time>2024-04-23T08:18:56Z</time>
      </trkpt>
      <trkpt lat="48.65226" lon="1.95746">
        <ele>171.9</ele>
        <time>2024-04-23T08:19:03Z</time>
      </trkpt>
      <trkpt lat="48.65217" lon="1.95741">
        <ele>172.2</ele>
        <time>2024-04-23T08:19:10Z</time>
      </trkpt>
      <trkpt lat="48.65208" lon="1.95735">
        <ele>172.5</ele>
        <time>2024-04-23T08:19:15Z</time>
      </trkpt>
      <trkpt lat="48.65201" lon="1.95725">
        <ele>172.8</ele>
        <time>2024-04-23T08:19:22Z</time>
      </trkpt>
      <trkpt lat="48.65193" lon="1.95717">
        <ele>173</ele>
        <time>2024-04-23T08:19:28Z</time>
      </trkpt>
      <trkpt lat="48.65186" lon="1.95708">
        <ele>173</ele>
        <time>2024-04-23T08:19:36Z</time>
      </trkpt>
      <trkpt lat="48.65178" lon="1.95701">
        <ele>173</ele>
        <time>2024-04-23T08:19:43Z</time>
      </trkpt>
      <trkpt lat="48.65169" lon="1.95694">
        <ele>173</ele>
        <time>2024-04-23T08:19:51Z</time>
      </trkpt>
      <trkpt lat="48.6516" lon="1.95686">
        <ele>173.2</ele>
        <time>2024-04-23T08:19:58Z</time>
      </trkpt>
      <trkpt lat="48.65151" lon="1.9568">
        <ele>173.6</ele>
        <time>2024-04-23T08:20:05Z</time>
      </trkpt>
      <trkpt lat="48.6515" lon="1.95666">
        <ele>173.6</ele>
        <time>2024-04-23T08:20:17Z</time>
      </trkpt>
      <trkpt lat="48.65147" lon="1.95653">
        <ele>173.9</ele>
        <time>2024-04-23T08:20:24Z</time>
      </trkpt>
      <trkpt lat="48.65148" lon="1.95639">
        <ele>174</ele>
        <time>2024-04-23T08:20:34Z</time>
      </trkpt>
      <trkpt lat="48.65147" lon="1.95624">
        <ele>174</ele>
        <time>2024-04-23T08:20:40Z</time>
      </trkpt>
      <trkpt lat="48.65149" lon="1.9561">
        <ele>174</ele>
        <time>2024-04-23T08:20:47Z</time>
      </trkpt>
      <trkpt lat="48.6515" lon="1.95595">
        <ele>174</ele>
        <time>2024-04-23T08:20:53Z</time>
      </trkpt>
      <trkpt lat="48.65146" lon="1.95581">
        <ele>174</ele>
        <time>2024-04-23T08:20:59Z</time>
      </trkpt>
      <trkpt lat="48.6514" lon="1.9557">
        <ele>174</ele>
        <time>2024-04-23T08:21:04Z</time>
      </trkpt>
      <trkpt lat="48.65131" lon="1.95563">
        <ele>174</ele>
        <time>2024-04-23T08:21:09Z</time>
      </trkpt>
      <trkpt lat="48.65122" lon="1.95557">
        <ele>174</ele>
        <time>2024-04-23T08:21:16Z</time>
      </trkpt>
      <trkpt lat="48.65113" lon="1.95553">
        <ele>174</ele>
        <time>2024-04-23T08:21:24Z</time>
      </trkpt>
      <trkpt lat="48.65105" lon="1.95544">
        <ele>173.9</ele>
        <time>2024-04-23T08:21:41Z</time>
      </trkpt>
      <trkpt lat="48.65094" lon="1.95542">
        <ele>173.7</ele>
        <time>2024-04-23T08:21:47Z</time>
      </trkpt>
      <trkpt lat="48.65085" lon="1.95538">
        <ele>173.4</ele>
        <time>2024-04-23T08:21:54Z</time>
      </trkpt>
      <trkpt lat="48.65075" lon="1.95535">
        <ele>173.2</ele>
        <time>2024-04-23T08:22:03Z</time>
      </trkpt>
      <trkpt lat="48.65066" lon="1.95534">
        <ele>173.1</ele>
        <time>2024-04-23T08:22:10Z</time>
      </trkpt>
      <trkpt lat="48.65056" lon="1.95532">
        <ele>173</ele>
        <time>2024-04-23T08:22:18Z</time>
      </trkpt>
      <trkpt lat="48.65046" lon="1.95536">
        <ele>172.8</ele>
        <time>2024-04-23T08:22:23Z</time>
      </trkpt>
      <trkpt lat="48.65036" lon="1.9554">
        <ele>172.6</ele>
        <time>2024-04-23T08:22:28Z</time>
      </trkpt>
      <trkpt lat="48.65027" lon="1.95541">
        <ele>172.4</ele>
        <time>2024-04-23T08:22:34Z</time>
      </trkpt>
      <trkpt lat="48.65027" lon="1.95527">
        <ele>171.9</ele>
        <time>2024-04-23T08:22:53Z</time>
      </trkpt>
      <trkpt lat="48.65017" lon="1.95527">
        <ele>171.2</ele>
        <time>2024-04-23T08:23:02Z</time>
      </trkpt>
      <trkpt lat="48.65008" lon="1.95529">
        <ele>170.7</ele>
        <time>2024-04-23T08:23:06Z</time>
      </trkpt>
      <trkpt lat="48.64997" lon="1.95531">
        <ele>170</ele>
        <time>2024-04-23T08:23:10Z</time>
      </trkpt>
      <trkpt lat="48.64986" lon="1.95533">
        <ele>169.5</ele>
        <time>2024-04-23T08:23:14Z</time>
      </trkpt>
      <trkpt lat="48.64976" lon="1.9554">
        <ele>169.5</ele>
        <time>2024-04-23T08:23:18Z</time>
      </trkpt>
      <trkpt lat="48.64967" lon="1.95547">
        <ele>170.2</ele>
        <time>2024-04-23T08:23:22Z</time>
      </trkpt>
      <trkpt lat="48.64956" lon="1.95552">
        <ele>171.2</ele>
        <time>2024-04-23T08:23:27Z</time>
      </trkpt>
      <trkpt lat="48.64947" lon="1.95555">
        <ele>171.8</ele>
        <time>2024-04-23T08:23:30Z</time>
      </trkpt>
      <trkpt lat="48.64936" lon="1.95559">
        <ele>172.7</ele>
        <time>2024-04-23T08:23:34Z</time>
      </trkpt>
      <trkpt lat="48.64926" lon="1.95563">
        <ele>173.4</ele>
        <time>2024-04-23T08:23:38Z</time>
      </trkpt>
      <trkpt lat="48.64915" lon="1.95567">
        <ele>174</ele>
        <time>2024-04-23T08:23:43Z</time>
      </trkpt>
      <trkpt lat="48.64906" lon="1.95569">
        <ele>174.4</ele>
        <time>2024-04-23T08:23:48Z</time>
      </trkpt>
      <trkpt lat="48.64895" lon="1.9557">
        <ele>174.8</ele>
        <time>2024-04-23T08:23:54Z</time>
      </trkpt>
      <trkpt lat="48.64885" lon="1.9557">
        <ele>175</ele>
        <time>2024-04-23T08:24:00Z</time>
      </trkpt>
      <trkpt lat="48.64875" lon="1.95571">
        <ele>175</ele>
        <time>2024-04-23T08:24:06Z</time>
      </trkpt>
      <trkpt lat="48.64864" lon="1.9557">
        <ele>175</ele>
        <time>2024-04-23T08:24:12Z</time>
      </trkpt>
      <trkpt lat="48.64855" lon="1.95573">
        <ele>175</ele>
        <time>2024-04-23T08:24:17Z</time>
      </trkpt>
      <trkpt lat="48.64846" lon="1.95574">
        <ele>175</ele>
        <time>2024-04-23T08:24:22Z</time>
      </trkpt>
      <trkpt lat="48.64836" lon="1.95571">
        <ele>175</ele>
        <time>2024-04-23T08:24:33Z</time>
      </trkpt>
      <trkpt lat="48.64827" lon="1.95571">
        <ele>175</ele>
        <time>2024-04-23T08:24:39Z</time>
      </trkpt>
      <trkpt lat="48.64817" lon="1.95574">
        <ele>175</ele>
        <time>2024-04-23T08:24:44Z</time>
      </trkpt>
      <trkpt lat="48.64808" lon="1.95572">
        <ele>175</ele>
        <time>2024-04-23T08:24:50Z</time>
      </trkpt>
      <trkpt lat="48.64798" lon="1.95568">
        <ele>175</ele>
        <time>2024-04-23T08:24:56Z</time>
      </trkpt>
      <trkpt lat="48.64789" lon="1.95568">
        <ele>175</ele>
        <time>2024-04-23T08:25:02Z</time>
      </trkpt>
      <trkpt lat="48.6478" lon="1.95569">
        <ele>175</ele>
        <time>2024-04-23T08:25:07Z</time>
      </trkpt>
      <trkpt lat="48.6477" lon="1.95572">
        <ele>174.3</ele>
        <time>2024-04-23T08:25:14Z</time>
      </trkpt>
      <trkpt lat="48.64761" lon="1.95572">
        <ele>173.5</ele>
        <time>2024-04-23T08:25:38Z</time>
      </trkpt>
      <trkpt lat="48.6475" lon="1.95575">
        <ele>172.7</ele>
        <time>2024-04-23T08:25:43Z</time>
      </trkpt>
      <trkpt lat="48.64739" lon="1.95579">
        <ele>172</ele>
        <time>2024-04-23T08:25:48Z</time>
      </trkpt>
      <trkpt lat="48.6473" lon="1.95581">
        <ele>171.3</ele>
        <time>2024-04-23T08:25:52Z</time>
      </trkpt>
      <trkpt lat="48.64719" lon="1.95584">
        <ele>170.7</ele>
        <time>2024-04-23T08:25:56Z</time>
      </trkpt>
      <trkpt lat="48.64709" lon="1.95589">
        <ele>169.7</ele>
        <time>2024-04-23T08:26:01Z</time>
      </trkpt>
      <trkpt lat="48.64698" lon="1.95593">
        <ele>169</ele>
        <time>2024-04-23T08:26:06Z</time>
      </trkpt>
      <trkpt lat="48.6469" lon="1.95598">
        <ele>168.9</ele>
        <time>2024-04-23T08:26:11Z</time>
      </trkpt>
      <trkpt lat="48.6468" lon="1.95605">
        <ele>169</ele>
        <time>2024-04-23T08:26:16Z</time>
      </trkpt>
      <trkpt lat="48.6467" lon="1.9561">
        <ele>169.1</ele>
        <time>2024-04-23T08:26:21Z</time>
      </trkpt>
      <trkpt lat="48.6466" lon="1.9561">
        <ele>168.9</ele>
        <time>2024-04-23T08:26:26Z</time>
      </trkpt>
      <trkpt lat="48.64651" lon="1.95613">
        <ele>169.1</ele>
        <time>2024-04-23T08:26:31Z</time>
      </trkpt>
      <trkpt lat="48.64641" lon="1.95616">
        <ele>169.2</ele>
        <time>2024-04-23T08:26:38Z</time>
      </trkpt>
      <trkpt lat="48.64631" lon="1.95619">
        <ele>169.1</ele>
        <time>2024-04-23T08:26:44Z</time>
      </trkpt>
      <trkpt lat="48.64623" lon="1.95624">
        <ele>169.2</ele>
        <time>2024-04-23T08:26:49Z</time>
      </trkpt>
      <trkpt lat="48.64613" lon="1.95628">
        <ele>169.3</ele>
        <time>2024-04-23T08:26:56Z</time>
      </trkpt>
      <trkpt lat="48.64604" lon="1.9563">
        <ele>169.3</ele>
        <time>2024-04-23T08:27:01Z</time>
      </trkpt>
      <trkpt lat="48.64594" lon="1.95629">
        <ele>169.3</ele>
        <time>2024-04-23T08:27:10Z</time>
      </trkpt>
      <trkpt lat="48.64585" lon="1.95625">
        <ele>169</ele>
        <time>2024-04-23T08:27:17Z</time>
      </trkpt>
      <trkpt lat="48.64576" lon="1.95622">
        <ele>168.8</ele>
        <time>2024-04-23T08:27:24Z</time>
      </trkpt>
      <trkpt lat="48.64566" lon="1.9562">
        <ele>168.6</ele>
        <time>2024-04-23T08:27:32Z</time>
      </trkpt>
      <trkpt lat="48.64556" lon="1.95618">
        <ele>168.5</ele>
        <time>2024-04-23T08:27:49Z</time>
      </trkpt>
      <trkpt lat="48.64545" lon="1.95615">
        <ele>168.6</ele>
        <time>2024-04-23T08:27:55Z</time>
      </trkpt>
      <trkpt lat="48.64535" lon="1.95615">
        <ele>168.9</ele>
        <time>2024-04-23T08:28:00Z</time>
      </trkpt>
      <trkpt lat="48.64525" lon="1.95614">
        <ele>169</ele>
        <time>2024-04-23T08:28:06Z</time>
      </trkpt>
      <trkpt lat="48.64516" lon="1.95617">
        <ele>168.9</ele>
        <time>2024-04-23T08:28:10Z</time>
      </trkpt>
      <trkpt lat="48.64506" lon="1.95619">
        <ele>168.7</ele>
        <time>2024-04-23T08:28:15Z</time>
      </trkpt>
      <trkpt lat="48.64497" lon="1.95618">
        <ele>168.4</ele>
        <time>2024-04-23T08:28:21Z</time>
      </trkpt>
      <trkpt lat="48.64487" lon="1.95614">
        <ele>167.8</ele>
        <time>2024-04-23T08:28:28Z</time>
      </trkpt>
      <trkpt lat="48.64478" lon="1.95614">
        <ele>167.5</ele>
        <time>2024-04-23T08:28:32Z</time>
      </trkpt>
      <trkpt lat="48.64468" lon="1.95614">
        <ele>167.5</ele>
        <time>2024-04-23T08:28:36Z</time>
      </trkpt>
      <trkpt lat="48.64459" lon="1.95614">
        <ele>167.7</ele>
        <time>2024-04-23T08:28:40Z</time>
      </trkpt>
      <trkpt lat="48.6445" lon="1.95613">
        <ele>168</ele>
        <time>2024-04-23T08:28:45Z</time>
      </trkpt>
      <trkpt lat="48.64439" lon="1.9561">
        <ele>168.2</ele>
        <time>2024-04-23T08:28:52Z</time>
      </trkpt>
      <trkpt lat="48.6443" lon="1.95605">
        <ele>168.4</ele>
        <time>2024-04-23T08:28:58Z</time>
      </trkpt>
      <trkpt lat="48.64421" lon="1.95597">
        <ele>168.8</ele>
        <time>2024-04-23T08:29:05Z</time>
      </trkpt>
      <trkpt lat="48.64412" lon="1.95592">
        <ele>169.2</ele>
        <time>2024-04-23T08:29:11Z</time>
      </trkpt>
      <trkpt lat="48.64403" lon="1.95586">
        <ele>169.5</ele>
        <time>2024-04-23T08:29:18Z</time>
      </trkpt>
      <trkpt lat="48.64393" lon="1.95581">
        <ele>169.8</ele>
        <time>2024-04-23T08:29:23Z</time>
      </trkpt>
      <trkpt lat="48.64385" lon="1.95574">
        <ele>170</ele>
        <time>2024-04-23T08:29:35Z</time>
      </trkpt>
      <trkpt lat="48.64376" lon="1.95569">
        <ele>170</ele>
        <time>2024-04-23T08:29:41Z</time>
      </trkpt>
      <trkpt lat="48.64366" lon="1.95564">
        <ele>170</ele>
        <time>2024-04-23T08:29:47Z</time>
      </trkpt>
      <trkpt lat="48.64356" lon="1.95559">
        <ele>170</ele>
        <time>2024-04-23T08:29:53Z</time>
      </trkpt>
      <trkpt lat="48.64348" lon="1.95553">
        <ele>169.9</ele>
        <time>2024-04-23T08:29:59Z</time>
      </trkpt>
      <trkpt lat="48.6434" lon="1.95546">
        <ele>169.9</ele>
        <time>2024-04-23T08:30:06Z</time>
      </trkpt>
      <trkpt lat="48.64331" lon="1.95542">
        <ele>170</ele>
        <time>2024-04-23T08:30:12Z</time>
      </trkpt>
      <trkpt lat="48.64322" lon="1.95535">
        <ele>170</ele>
        <time>2024-04-23T08:30:18Z</time>
      </trkpt>
      <trkpt lat="48.64313" lon="1.95528">
        <ele>170</ele>
        <time>2024-04-23T08:30:24Z</time>
      </trkpt>
      <trkpt lat="48.64304" lon="1.95523">
        <ele>170</ele>
        <time>2024-04-23T08:30:33Z</time>
      </trkpt>
      <trkpt lat="48.64295" lon="1.95517">
        <ele>169.9</ele>
        <time>2024-04-23T08:30:39Z</time>
      </trkpt>
      <trkpt lat="48.64287" lon="1.95509">
        <ele>169.5</ele>
        <time>2024-04-23T08:30:45Z</time>
      </trkpt>
      <trkpt lat="48.64278" lon="1.95504">
        <ele>169.2</ele>
        <time>2024-04-23T08:30:52Z</time>
      </trkpt>
      <trkpt lat="48.64269" lon="1.95501">
        <ele>169.3</ele>
        <time>2024-04-23T08:30:59Z</time>
      </trkpt>
      <trkpt lat="48.6426" lon="1.95496">
        <ele>169.5</ele>
        <time>2024-04-23T08:31:03Z</time>
      </trkpt>
      <trkpt lat="48.64251" lon="1.95489">
        <ele>169.6</ele>
        <time>2024-04-23T08:31:09Z</time>
      </trkpt>
      <trkpt lat="48.64242" lon="1.95482">
        <ele>169.4</ele>
        <time>2024-04-23T08:31:16Z</time>
      </trkpt>
      <trkpt lat="48.64234" lon="1.95475">
        <ele>169.1</ele>
        <time>2024-04-23T08:31:23Z</time>
      </trkpt>
      <trkpt lat="48.64224" lon="1.95471">
        <ele>168.9</ele>
        <time>2024-04-23T08:31:29Z</time>
      </trkpt>
      <trkpt lat="48.64214" lon="1.95466">
        <ele>168.7</ele>
        <time>2024-04-23T08:31:37Z</time>
      </trkpt>
      <trkpt lat="48.64206" lon="1.95459">
        <ele>168.2</ele>
        <time>2024-04-23T08:31:48Z</time>
      </trkpt>
      <trkpt lat="48.64196" lon="1.95454">
        <ele>167.7</ele>
        <time>2024-04-23T08:31:54Z</time>
      </trkpt>
      <trkpt lat="48.64187" lon="1.95449">
        <ele>167.5</ele>
        <time>2024-04-23T08:31:59Z</time>
      </trkpt>
      <trkpt lat="48.64177" lon="1.95446">
        <ele>167.7</ele>
        <time>2024-04-23T08:32:05Z</time>
      </trkpt>
      <trkpt lat="48.64167" lon="1.9544">
        <ele>167.8</ele>
        <time>2024-04-23T08:32:11Z</time>
      </trkpt>
      <trkpt lat="48.64159" lon="1.95432">
        <ele>167.7</ele>
        <time>2024-04-23T08:32:17Z</time>
      </trkpt>
      <trkpt lat="48.64151" lon="1.95426">
        <ele>167.7</ele>
        <time>2024-04-23T08:32:23Z</time>
      </trkpt>
      <trkpt lat="48.64142" lon="1.95421">
        <ele>167.9</ele>
        <time>2024-04-23T08:32:29Z</time>
      </trkpt>
      <trkpt lat="48.64133" lon="1.95414">
        <ele>168.1</ele>
        <time>2024-04-23T08:32:36Z</time>
      </trkpt>
      <trkpt lat="48.64124" lon="1.95411">
        <ele>168.2</ele>
        <time>2024-04-23T08:32:42Z</time>
      </trkpt>
      <trkpt lat="48.64114" lon="1.95407">
        <ele>168.2</ele>
        <time>2024-04-23T08:32:51Z</time>
      </trkpt>
      <trkpt lat="48.64105" lon="1.95401">
        <ele>168</ele>
        <time>2024-04-23T08:35:06Z</time>
      </trkpt>
      <trkpt lat="48.64096" lon="1.95396">
        <ele>167.9</ele>
        <time>2024-04-23T08:35:14Z</time>
      </trkpt>
      <trkpt lat="48.64087" lon="1.95391">
        <ele>168</ele>
        <time>2024-04-23T08:35:19Z</time>
      </trkpt>
      <trkpt lat="48.64078" lon="1.95386">
        <ele>168.1</ele>
        <time>2024-04-23T08:35:25Z</time>
      </trkpt>
      <trkpt lat="48.6407" lon="1.9538">
        <ele>168.2</ele>
        <time>2024-04-23T08:35:31Z</time>
      </trkpt>
      <trkpt lat="48.64061" lon="1.95375">
        <ele>168.3</ele>
        <time>2024-04-23T08:35:39Z</time>
      </trkpt>
      <trkpt lat="48.64051" lon="1.95368">
        <ele>168.4</ele>
        <time>2024-04-23T08:35:47Z</time>
      </trkpt>
      <trkpt lat="48.64042" lon="1.95361">
        <ele>168.5</ele>
        <time>2024-04-23T08:35:53Z</time>
      </trkpt>
      <trkpt lat="48.64032" lon="1.95359">
        <ele>168.7</ele>
        <time>2024-04-23T08:35:59Z</time>
      </trkpt>
      <trkpt lat="48.64023" lon="1.95357">
        <ele>168.3</ele>
        <time>2024-04-23T08:36:05Z</time>
      </trkpt>
      <trkpt lat="48.64014" lon="1.95361">
        <ele>167.9</ele>
        <time>2024-04-23T08:36:10Z</time>
      </trkpt>
      <trkpt lat="48.64004" lon="1.95365">
        <ele>167.6</ele>
        <time>2024-04-23T08:36:15Z</time>
      </trkpt>
      <trkpt lat="48.63996" lon="1.95371">
        <ele>167.4</ele>
        <time>2024-04-23T08:36:23Z</time>
      </trkpt>
      <trkpt lat="48.63987" lon="1.95375">
        <ele>167.1</ele>
        <time>2024-04-23T08:36:31Z</time>
      </trkpt>
      <trkpt lat="48.63977" lon="1.95379">
        <ele>166.6</ele>
        <time>2024-04-23T08:36:41Z</time>
      </trkpt>
      <trkpt lat="48.63968" lon="1.95381">
        <ele>165.9</ele>
        <time>2024-04-23T08:36:48Z</time>
      </trkpt>
      <trkpt lat="48.63958" lon="1.95382">
        <ele>164.9</ele>
        <time>2024-04-23T08:36:55Z</time>
      </trkpt>
      <trkpt lat="48.63959" lon="1.95368">
        <ele>163.7</ele>
        <time>2024-04-23T08:37:04Z</time>
      </trkpt>
      <trkpt lat="48.63964" lon="1.95357">
        <ele>163.2</ele>
        <time>2024-04-23T08:37:11Z</time>
      </trkpt>
      <trkpt lat="48.63972" lon="1.95347">
        <ele>162.9</ele>
        <time>2024-04-23T08:37:19Z</time>
      </trkpt>
      <trkpt lat="48.63962" lon="1.95343">
        <ele>160.9</ele>
        <time>2024-04-23T08:37:26Z</time>
      </trkpt>
      <trkpt lat="48.63953" lon="1.95348">
        <ele>160.3</ele>
        <time>2024-04-23T08:37:32Z</time>
      </trkpt>
      <trkpt lat="48.63943" lon="1.95352">
        <ele>159.4</ele>
        <time>2024-04-23T08:37:39Z</time>
      </trkpt>
      <trkpt lat="48.63949" lon="1.95339">
        <ele>158.5</ele>
        <time>2024-04-23T08:37:54Z</time>
      </trkpt>
      <trkpt lat="48.6394" lon="1.95336">
        <ele>156.7</ele>
        <time>2024-04-23T08:38:08Z</time>
      </trkpt>
      <trkpt lat="48.63931" lon="1.9534">
        <ele>155.8</ele>
        <time>2024-04-23T08:38:14Z</time>
      </trkpt>
      <trkpt lat="48.63938" lon="1.95331">
        <ele>155.5</ele>
        <time>2024-04-23T08:38:27Z</time>
      </trkpt>
      <trkpt lat="48.63947" lon="1.95322">
        <ele>154.6</ele>
        <time>2024-04-23T08:38:35Z</time>
      </trkpt>
      <trkpt lat="48.63952" lon="1.95311">
        <ele>152.9</ele>
        <time>2024-04-23T08:38:44Z</time>
      </trkpt>
      <trkpt lat="48.63949" lon="1.95297">
        <ele>149.5</ele>
        <time>2024-04-23T08:38:50Z</time>
      </trkpt>
      <trkpt lat="48.6395" lon="1.95282">
        <ele>146.8</ele>
        <time>2024-04-23T08:38:56Z</time>
      </trkpt>
      <trkpt lat="48.63954" lon="1.95269">
        <ele>145.6</ele>
        <time>2024-04-23T08:39:04Z</time>
      </trkpt>
      <trkpt lat="48.6396" lon="1.95256">
        <ele>144.6</ele>
        <time>2024-04-23T08:39:13Z</time>
      </trkpt>
      <trkpt lat="48.63967" lon="1.95245">
        <ele>143.7</ele>
        <time>2024-04-23T08:39:22Z</time>
      </trkpt>
      <trkpt lat="48.63971" lon="1.95233">
        <ele>142.5</ele>
        <time>2024-04-23T08:39:29Z</time>
      </trkpt>
      <trkpt lat="48.63972" lon="1.95218">
        <ele>140.4</ele>
        <time>2024-04-23T08:39:36Z</time>
      </trkpt>
      <trkpt lat="48.63974" lon="1.95205">
        <ele>138.4</ele>
        <time>2024-04-23T08:39:43Z</time>
      </trkpt>
      <trkpt lat="48.63976" lon="1.9519">
        <ele>136.3</ele>
        <time>2024-04-23T08:39:50Z</time>
      </trkpt>
      <trkpt lat="48.6398" lon="1.95176">
        <ele>134.4</ele>
        <time>2024-04-23T08:40:00Z</time>
      </trkpt>
      <trkpt lat="48.63982" lon="1.95162">
        <ele>132.3</ele>
        <time>2024-04-23T08:40:07Z</time>
      </trkpt>
      <trkpt lat="48.63987" lon="1.95149">
        <ele>130.2</ele>
        <time>2024-04-23T08:40:15Z</time>
      </trkpt>
      <trkpt lat="48.63991" lon="1.95136">
        <ele>128.4</ele>
        <time>2024-04-23T08:40:21Z</time>
      </trkpt>
      <trkpt lat="48.6399" lon="1.9512">
        <ele>127.3</ele>
        <time>2024-04-23T08:40:27Z</time>
      </trkpt>
      <trkpt lat="48.63993" lon="1.95104">
        <ele>126.2</ele>
        <time>2024-04-23T08:40:33Z</time>
      </trkpt>
      <trkpt lat="48.63996" lon="1.95092">
        <ele>125.5</ele>
        <time>2024-04-23T08:40:40Z</time>
      </trkpt>
      <trkpt lat="48.63992" lon="1.95077">
        <ele>125.2</ele>
        <time>2024-04-23T08:40:47Z</time>
      </trkpt>
      <trkpt lat="48.63985" lon="1.95065">
        <ele>125.2</ele>
        <time>2024-04-23T08:40:53Z</time>
      </trkpt>
      <trkpt lat="48.63979" lon="1.95054">
        <ele>125</ele>
        <time>2024-04-23T08:40:59Z</time>
      </trkpt>
      <trkpt lat="48.63973" lon="1.95044">
        <ele>125</ele>
        <time>2024-04-23T08:41:05Z</time>
      </trkpt>
      <trkpt lat="48.6397" lon="1.95031">
        <ele>124.9</ele>
        <time>2024-04-23T08:41:13Z</time>
      </trkpt>
      <trkpt lat="48.63979" lon="1.95025">
        <ele>124.7</ele>
        <time>2024-04-23T08:41:21Z</time>
      </trkpt>
      <trkpt lat="48.63987" lon="1.95017">
        <ele>124.3</ele>
        <time>2024-04-23T08:41:33Z</time>
      </trkpt>
      <trkpt lat="48.63992" lon="1.95005">
        <ele>124.1</ele>
        <time>2024-04-23T08:42:03Z</time>
      </trkpt>
      <trkpt lat="48.63992" lon="1.94992">
        <ele>123.9</ele>
        <time>2024-04-23T08:42:12Z</time>
      </trkpt>
      <trkpt lat="48.63994" lon="1.94977">
        <ele>123.8</ele>
        <time>2024-04-23T08:42:23Z</time>
      </trkpt>
      <trkpt lat="48.63994" lon="1.94963">
        <ele>123.8</ele>
        <time>2024-04-23T08:42:31Z</time>
      </trkpt>
      <trkpt lat="48.63998" lon="1.94949">
        <ele>123.9</ele>
        <time>2024-04-23T08:42:40Z</time>
      </trkpt>
      <trkpt lat="48.64" lon="1.94935">
        <ele>124</ele>
        <time>2024-04-23T08:42:47Z</time>
      </trkpt>
      <trkpt lat="48.64002" lon="1.9492">
        <ele>124.1</ele>
        <time>2024-04-23T08:42:55Z</time>
      </trkpt>
      <trkpt lat="48.64001" lon="1.94905">
        <ele>124.4</ele>
        <time>2024-04-23T08:43:02Z</time>
      </trkpt>
      <trkpt lat="48.64004" lon="1.94892">
        <ele>124.9</ele>
        <time>2024-04-23T08:43:10Z</time>
      </trkpt>
      <trkpt lat="48.64009" lon="1.94879">
        <ele>125.1</ele>
        <time>2024-04-23T08:43:18Z</time>
      </trkpt>
      <trkpt lat="48.64013" lon="1.94866">
        <ele>125.4</ele>
        <time>2024-04-23T08:43:28Z</time>
      </trkpt>
      <trkpt lat="48.64015" lon="1.94853">
        <ele>125.6</ele>
        <time>2024-04-23T08:43:36Z</time>
      </trkpt>
      <trkpt lat="48.64015" lon="1.9484">
        <ele>125.5</ele>
        <time>2024-04-23T08:43:42Z</time>
      </trkpt>
      <trkpt lat="48.64021" lon="1.94829">
        <ele>125.8</ele>
        <time>2024-04-23T08:43:51Z</time>
      </trkpt>
      <trkpt lat="48.64029" lon="1.9482">
        <ele>126</ele>
        <time>2024-04-23T08:43:58Z</time>
      </trkpt>
      <trkpt lat="48.64036" lon="1.94811">
        <ele>126.3</ele>
        <time>2024-04-23T08:44:06Z</time>
      </trkpt>
      <trkpt lat="48.64044" lon="1.94802">
        <ele>126.5</ele>
        <time>2024-04-23T08:44:13Z</time>
      </trkpt>
      <trkpt lat="48.64051" lon="1.94791">
        <ele>126.4</ele>
        <time>2024-04-23T08:44:21Z</time>
      </trkpt>
      <trkpt lat="48.64054" lon="1.94777">
        <ele>126</ele>
        <time>2024-04-23T08:44:33Z</time>
      </trkpt>
      <trkpt lat="48.64064" lon="1.94775">
        <ele>126.6</ele>
        <time>2024-04-23T08:44:42Z</time>
      </trkpt>
      <trkpt lat="48.64072" lon="1.94766">
        <ele>127.2</ele>
        <time>2024-04-23T08:44:52Z</time>
      </trkpt>
      <trkpt lat="48.64081" lon="1.94759">
        <ele>127.8</ele>
        <time>2024-04-23T08:45:00Z</time>
      </trkpt>
      <trkpt lat="48.64091" lon="1.94756">
        <ele>128.6</ele>
        <time>2024-04-23T08:45:07Z</time>
      </trkpt>
      <trkpt lat="48.641" lon="1.94751">
        <ele>129.2</ele>
        <time>2024-04-23T08:45:14Z</time>
      </trkpt>
      <trkpt lat="48.64109" lon="1.94746">
        <ele>129.5</ele>
        <time>2024-04-23T08:45:22Z</time>
      </trkpt>
      <trkpt lat="48.64118" lon="1.94742">
        <ele>129.8</ele>
        <time>2024-04-23T08:45:30Z</time>
      </trkpt>
      <trkpt lat="48.64128" lon="1.94744">
        <ele>130.3</ele>
        <time>2024-04-23T08:45:38Z</time>
      </trkpt>
      <trkpt lat="48.64137" lon="1.94743">
        <ele>130.7</ele>
        <time>2024-04-23T08:45:45Z</time>
      </trkpt>
      <trkpt lat="48.64147" lon="1.94741">
        <ele>130.9</ele>
        <time>2024-04-23T08:45:52Z</time>
      </trkpt>
      <trkpt lat="48.64158" lon="1.94742">
        <ele>131.2</ele>
        <time>2024-04-23T08:45:59Z</time>
      </trkpt>
      <trkpt lat="48.64168" lon="1.9474">
        <ele>131.3</ele>
        <time>2024-04-23T08:46:06Z</time>
      </trkpt>
      <trkpt lat="48.64177" lon="1.94738">
        <ele>131.2</ele>
        <time>2024-04-23T08:46:12Z</time>
      </trkpt>
      <trkpt lat="48.64187" lon="1.94738">
        <ele>131.2</ele>
        <time>2024-04-23T08:46:19Z</time>
      </trkpt>
      <trkpt lat="48.64197" lon="1.9474">
        <ele>131.3</ele>
        <time>2024-04-23T08:46:25Z</time>
      </trkpt>
      <trkpt lat="48.64206" lon="1.94743">
        <ele>131.5</ele>
        <time>2024-04-23T08:46:32Z</time>
      </trkpt>
      <trkpt lat="48.64215" lon="1.94742">
        <ele>131.4</ele>
        <time>2024-04-23T08:46:40Z</time>
      </trkpt>
      <trkpt lat="48.64224" lon="1.94736">
        <ele>130.9</ele>
        <time>2024-04-23T08:46:47Z</time>
      </trkpt>
      <trkpt lat="48.64233" lon="1.9473">
        <ele>130.2</ele>
        <time>2024-04-23T08:46:54Z</time>
      </trkpt>
      <trkpt lat="48.64242" lon="1.94722">
        <ele>129.3</ele>
        <time>2024-04-23T08:47:01Z</time>
      </trkpt>
      <trkpt lat="48.64251" lon="1.94716">
        <ele>128.8</ele>
        <time>2024-04-23T08:47:09Z</time>
      </trkpt>
      <trkpt lat="48.64259" lon="1.94708">
        <ele>129.5</ele>
        <time>2024-04-23T08:47:15Z</time>
      </trkpt>
      <trkpt lat="48.64267" lon="1.94701">
        <ele>130.4</ele>
        <time>2024-04-23T08:47:23Z</time>
      </trkpt>
      <trkpt lat="48.64277" lon="1.94696">
        <ele>131.8</ele>
        <time>2024-04-23T08:47:31Z</time>
      </trkpt>
      <trkpt lat="48.64287" lon="1.94693">
        <ele>134.2</ele>
        <time>2024-04-23T08:47:39Z</time>
      </trkpt>
      <trkpt lat="48.64295" lon="1.94699">
        <ele>136</ele>
        <time>2024-04-23T08:47:59Z</time>
      </trkpt>
      <trkpt lat="48.643" lon="1.94711">
        <ele>136.4</ele>
        <time>2024-04-23T08:48:11Z</time>
      </trkpt>
      <trkpt lat="48.64307" lon="1.94721">
        <ele>137.4</ele>
        <time>2024-04-23T08:48:20Z</time>
      </trkpt>
      <trkpt lat="48.64315" lon="1.94728">
        <ele>139.4</ele>
        <time>2024-04-23T08:48:34Z</time>
      </trkpt>
      <trkpt lat="48.64324" lon="1.94727">
        <ele>142.1</ele>
        <time>2024-04-23T08:48:43Z</time>
      </trkpt>
      <trkpt lat="48.6433" lon="1.94738">
        <ele>143.5</ele>
        <time>2024-04-23T08:48:58Z</time>
      </trkpt>
      <trkpt lat="48.64334" lon="1.94751">
        <ele>144.2</ele>
        <time>2024-04-23T08:49:10Z</time>
      </trkpt>
      <trkpt lat="48.64341" lon="1.94761">
        <ele>145.3</ele>
        <time>2024-04-23T08:49:22Z</time>
      </trkpt>
      <trkpt lat="48.64349" lon="1.94769">
        <ele>146.9</ele>
        <time>2024-04-23T08:49:34Z</time>
      </trkpt>
      <trkpt lat="48.64356" lon="1.94779">
        <ele>147.8</ele>
        <time>2024-04-23T08:49:44Z</time>
      </trkpt>
      <trkpt lat="48.64364" lon="1.94786">
        <ele>149.3</ele>
        <time>2024-04-23T08:49:52Z</time>
      </trkpt>
      <trkpt lat="48.64372" lon="1.94794">
        <ele>150.3</ele>
        <time>2024-04-23T08:50:00Z</time>
      </trkpt>
      <trkpt lat="48.6438" lon="1.94801">
        <ele>151.1</ele>
        <time>2024-04-23T08:50:09Z</time>
      </trkpt>
      <trkpt lat="48.64388" lon="1.94812">
        <ele>151.1</ele>
        <time>2024-04-23T08:50:17Z</time>
      </trkpt>
      <trkpt lat="48.64395" lon="1.9482">
        <ele>151.2</ele>
        <time>2024-04-23T08:50:25Z</time>
      </trkpt>
      <trkpt lat="48.64403" lon="1.94826">
        <ele>151.5</ele>
        <time>2024-04-23T08:50:35Z</time>
      </trkpt>
      <trkpt lat="48.64413" lon="1.94832">
        <ele>151.8</ele>
        <time>2024-04-23T08:50:46Z</time>
      </trkpt>
      <trkpt lat="48.6442" lon="1.94841">
        <ele>151.5</ele>
        <time>2024-04-23T08:50:54Z</time>
      </trkpt>
      <trkpt lat="48.64428" lon="1.94848">
        <ele>151.5</ele>
        <time>2024-04-23T08:51:01Z</time>
      </trkpt>
      <trkpt lat="48.64437" lon="1.94852">
        <ele>151.7</ele>
        <time>2024-04-23T08:51:17Z</time>
      </trkpt>
      <trkpt lat="48.64446" lon="1.94858">
        <ele>151.6</ele>
        <time>2024-04-23T08:51:25Z</time>
      </trkpt>
      <trkpt lat="48.64455" lon="1.94864">
        <ele>151.3</ele>
        <time>2024-04-23T08:51:38Z</time>
      </trkpt>
      <trkpt lat="48.64463" lon="1.94872">
        <ele>150.8</ele>
        <time>2024-04-23T08:51:46Z</time>
      </trkpt>
      <trkpt lat="48.64471" lon="1.94879">
        <ele>150.3</ele>
        <time>2024-04-23T08:51:55Z</time>
      </trkpt>
      <trkpt lat="48.6448" lon="1.94878">
        <ele>151.4</ele>
        <time>2024-04-23T08:52:11Z</time>
      </trkpt>
      <trkpt lat="48.64488" lon="1.9487">
        <ele>153.3</ele>
        <time>2024-04-23T08:52:25Z</time>
      </trkpt>
      <trkpt lat="48.64494" lon="1.9486">
        <ele>155.4</ele>
        <time>2024-04-23T08:52:35Z</time>
      </trkpt>
      <trkpt lat="48.64501" lon="1.9485">
        <ele>157.3</ele>
        <time>2024-04-23T08:52:46Z</time>
      </trkpt>
      <trkpt lat="48.64504" lon="1.94837">
        <ele>159.1</ele>
        <time>2024-04-23T08:52:56Z</time>
      </trkpt>
      <trkpt lat="48.64506" lon="1.94823">
        <ele>160.8</ele>
        <time>2024-04-23T08:53:06Z</time>
      </trkpt>
      <trkpt lat="48.64514" lon="1.94814">
        <ele>162.4</ele>
        <time>2024-04-23T08:53:15Z</time>
      </trkpt>
      <trkpt lat="48.64522" lon="1.94805">
        <ele>163.6</ele>
        <time>2024-04-23T08:53:25Z</time>
      </trkpt>
      <trkpt lat="48.64527" lon="1.94794">
        <ele>164.8</ele>
        <time>2024-04-23T08:53:34Z</time>
      </trkpt>
      <trkpt lat="48.64533" lon="1.94782">
        <ele>165.9</ele>
        <time>2024-04-23T08:53:45Z</time>
      </trkpt>
      <trkpt lat="48.6454" lon="1.94772">
        <ele>166.6</ele>
        <time>2024-04-23T08:53:55Z</time>
      </trkpt>
      <trkpt lat="48.64548" lon="1.94764">
        <ele>167.2</ele>
        <time>2024-04-23T08:54:03Z</time>
      </trkpt>
      <trkpt lat="48.64555" lon="1.94755">
        <ele>167.8</ele>
        <time>2024-04-23T08:54:14Z</time>
      </trkpt>
      <trkpt lat="48.6455" lon="1.94743">
        <ele>168.1</ele>
        <time>2024-04-23T08:55:23Z</time>
      </trkpt>
      <trkpt lat="48.64554" lon="1.9473">
        <ele>168.7</ele>
        <time>2024-04-23T08:55:38Z</time>
      </trkpt>
      <trkpt lat="48.64554" lon="1.94716">
        <ele>169.2</ele>
        <time>2024-04-23T08:57:24Z</time>
      </trkpt>
      <trkpt lat="48.64562" lon="1.94709">
        <ele>169.5</ele>
        <time>2024-04-23T08:57:33Z</time>
      </trkpt>
      <trkpt lat="48.64568" lon="1.94697">
        <ele>169.9</ele>
        <time>2024-04-23T08:57:40Z</time>
      </trkpt>
      <trkpt lat="48.64573" lon="1.94684">
        <ele>170</ele>
        <time>2024-04-23T08:57:48Z</time>
      </trkpt>
      <trkpt lat="48.64579" lon="1.94673">
        <ele>170</ele>
        <time>2024-04-23T08:57:55Z</time>
      </trkpt>
      <trkpt lat="48.64585" lon="1.94663">
        <ele>170</ele>
        <time>2024-04-23T08:58:02Z</time>
      </trkpt>
      <trkpt lat="48.64592" lon="1.94652">
        <ele>170</ele>
        <time>2024-04-23T08:58:09Z</time>
      </trkpt>
      <trkpt lat="48.64597" lon="1.9464">
        <ele>170</ele>
        <time>2024-04-23T08:58:15Z</time>
      </trkpt>
      <trkpt lat="48.646" lon="1.94627">
        <ele>170.4</ele>
        <time>2024-04-23T08:58:22Z</time>
      </trkpt>
      <trkpt lat="48.64607" lon="1.94618">
        <ele>170.8</ele>
        <time>2024-04-23T08:58:29Z</time>
      </trkpt>
      <trkpt lat="48.6461" lon="1.94604">
        <ele>171</ele>
        <time>2024-04-23T08:58:37Z</time>
      </trkpt>
      <trkpt lat="48.64617" lon="1.94593">
        <ele>171</ele>
        <time>2024-04-23T08:58:44Z</time>
      </trkpt>
      <trkpt lat="48.64623" lon="1.94583">
        <ele>171</ele>
        <time>2024-04-23T08:58:50Z</time>
      </trkpt>
      <trkpt lat="48.64627" lon="1.94571">
        <ele>171</ele>
        <time>2024-04-23T08:58:56Z</time>
      </trkpt>
      <trkpt lat="48.64632" lon="1.94559">
        <ele>171</ele>
        <time>2024-04-23T08:59:03Z</time>
      </trkpt>
      <trkpt lat="48.64637" lon="1.94547">
        <ele>171</ele>
        <time>2024-04-23T08:59:10Z</time>
      </trkpt>
      <trkpt lat="48.64641" lon="1.94534">
        <ele>171</ele>
        <time>2024-04-23T08:59:15Z</time>
      </trkpt>
      <trkpt lat="48.64645" lon="1.94519">
        <ele>171</ele>
        <time>2024-04-23T08:59:22Z</time>
      </trkpt>
      <trkpt lat="48.64652" lon="1.94509">
        <ele>171</ele>
        <time>2024-04-23T08:59:28Z</time>
      </trkpt>
      <trkpt lat="48.64658" lon="1.94498">
        <ele>171</ele>
        <time>2024-04-23T08:59:36Z</time>
      </trkpt>
      <trkpt lat="48.64663" lon="1.94484">
        <ele>171</ele>
        <time>2024-04-23T08:59:43Z</time>
      </trkpt>
      <trkpt lat="48.64668" lon="1.94472">
        <ele>171</ele>
        <time>2024-04-23T08:59:49Z</time>
      </trkpt>
      <trkpt lat="48.64671" lon="1.94459">
        <ele>171</ele>
        <time>2024-04-23T08:59:56Z</time>
      </trkpt>
      <trkpt lat="48.64676" lon="1.94445">
        <ele>171</ele>
        <time>2024-04-23T09:00:04Z</time>
      </trkpt>
      <trkpt lat="48.6468" lon="1.94433">
        <ele>171</ele>
        <time>2024-04-23T09:00:11Z</time>
      </trkpt>
      <trkpt lat="48.64684" lon="1.94421">
        <ele>171</ele>
        <time>2024-04-23T09:00:18Z</time>
      </trkpt>
      <trkpt lat="48.64688" lon="1.94408">
        <ele>171</ele>
        <time>2024-04-23T09:00:28Z</time>
      </trkpt>
      <trkpt lat="48.64695" lon="1.94397">
        <ele>171</ele>
        <time>2024-04-23T09:00:35Z</time>
      </trkpt>
      <trkpt lat="48.64701" lon="1.94385">
        <ele>171</ele>
        <time>2024-04-23T09:00:42Z</time>
      </trkpt>
      <trkpt lat="48.64707" lon="1.94373">
        <ele>171</ele>
        <time>2024-04-23T09:00:49Z</time>
      </trkpt>
      <trkpt lat="48.64715" lon="1.94365">
        <ele>171</ele>
        <time>2024-04-23T09:00:58Z</time>
      </trkpt>
      <trkpt lat="48.6472" lon="1.94352">
        <ele>171</ele>
        <time>2024-04-23T09:01:06Z</time>
      </trkpt>
      <trkpt lat="48.64726" lon="1.9434">
        <ele>171</ele>
        <time>2024-04-23T09:01:14Z</time>
      </trkpt>
      <trkpt lat="48.64733" lon="1.94328">
        <ele>171</ele>
        <time>2024-04-23T09:01:21Z</time>
      </trkpt>
      <trkpt lat="48.64736" lon="1.94315">
        <ele>171</ele>
        <time>2024-04-23T09:01:30Z</time>
      </trkpt>
      <trkpt lat="48.64742" lon="1.94304">
        <ele>171</ele>
        <time>2024-04-23T09:01:38Z</time>
      </trkpt>
      <trkpt lat="48.64747" lon="1.94291">
        <ele>171</ele>
        <time>2024-04-23T09:01:45Z</time>
      </trkpt>
      <trkpt lat="48.64752" lon="1.94278">
        <ele>171</ele>
        <time>2024-04-23T09:01:53Z</time>
      </trkpt>
      <trkpt lat="48.64756" lon="1.94265">
        <ele>170.9</ele>
        <time>2024-04-23T09:02:03Z</time>
      </trkpt>
      <trkpt lat="48.64765" lon="1.94259">
        <ele>170.6</ele>
        <time>2024-04-23T09:02:10Z</time>
      </trkpt>
      <trkpt lat="48.64772" lon="1.94249">
        <ele>170.2</ele>
        <time>2024-04-23T09:02:20Z</time>
      </trkpt>
      <trkpt lat="48.64772" lon="1.94235">
        <ele>170.2</ele>
        <time>2024-04-23T09:02:27Z</time>
      </trkpt>
      <trkpt lat="48.64776" lon="1.94221">
        <ele>170.1</ele>
        <time>2024-04-23T09:02:34Z</time>
      </trkpt>
      <trkpt lat="48.64779" lon="1.94207">
        <ele>170</ele>
        <time>2024-04-23T09:02:42Z</time>
      </trkpt>
      <trkpt lat="48.64786" lon="1.94196">
        <ele>170</ele>
        <time>2024-04-23T09:02:50Z</time>
      </trkpt>
      <trkpt lat="48.64791" lon="1.94184">
        <ele>170</ele>
        <time>2024-04-23T09:02:58Z</time>
      </trkpt>
      <trkpt lat="48.64797" lon="1.94171">
        <ele>170</ele>
        <time>2024-04-23T09:03:10Z</time>
      </trkpt>
      <trkpt lat="48.64801" lon="1.94157">
        <ele>170</ele>
        <time>2024-04-23T09:03:17Z</time>
      </trkpt>
      <trkpt lat="48.64807" lon="1.94145">
        <ele>170</ele>
        <time>2024-04-23T09:03:23Z</time>
      </trkpt>
      <trkpt lat="48.64813" lon="1.94133">
        <ele>170</ele>
        <time>2024-04-23T09:03:29Z</time>
      </trkpt>
      <trkpt lat="48.64819" lon="1.94123">
        <ele>170</ele>
        <time>2024-04-23T09:03:36Z</time>
      </trkpt>
      <trkpt lat="48.64823" lon="1.9411">
        <ele>170</ele>
        <time>2024-04-23T09:03:42Z</time>
      </trkpt>
      <trkpt lat="48.64826" lon="1.94097">
        <ele>170</ele>
        <time>2024-04-23T09:03:48Z</time>
      </trkpt>
      <trkpt lat="48.64833" lon="1.94084">
        <ele>170</ele>
        <time>2024-04-23T09:03:55Z</time>
      </trkpt>
      <trkpt lat="48.6484" lon="1.94073">
        <ele>169.8</ele>
        <time>2024-04-23T09:04:01Z</time>
      </trkpt>
      <trkpt lat="48.64844" lon="1.94061">
        <ele>169.6</ele>
        <time>2024-04-23T09:04:08Z</time>
      </trkpt>
      <trkpt lat="48.64848" lon="1.94048">
        <ele>169.5</ele>
        <time>2024-04-23T09:04:15Z</time>
      </trkpt>
      <trkpt lat="48.64852" lon="1.94035">
        <ele>169.3</ele>
        <time>2024-04-23T09:04:22Z</time>
      </trkpt>
      <trkpt lat="48.64859" lon="1.94027">
        <ele>169.1</ele>
        <time>2024-04-23T09:04:31Z</time>
      </trkpt>
      <trkpt lat="48.64864" lon="1.94013">
        <ele>169.4</ele>
        <time>2024-04-23T09:04:39Z</time>
      </trkpt>
      <trkpt lat="48.64869" lon="1.94002">
        <ele>169.7</ele>
        <time>2024-04-23T09:04:47Z</time>
      </trkpt>
      <trkpt lat="48.64874" lon="1.93988">
        <ele>169.5</ele>
        <time>2024-04-23T09:04:56Z</time>
      </trkpt>
      <trkpt lat="48.64879" lon="1.93975">
        <ele>169.4</ele>
        <time>2024-04-23T09:05:05Z</time>
      </trkpt>
      <trkpt lat="48.64879" lon="1.93962">
        <ele>169.4</ele>
        <time>2024-04-23T09:05:15Z</time>
      </trkpt>
      <trkpt lat="48.64886" lon="1.93952">
        <ele>169.1</ele>
        <time>2024-04-23T09:05:24Z</time>
      </trkpt>
      <trkpt lat="48.64893" lon="1.93941">
        <ele>168.7</ele>
        <time>2024-04-23T09:05:32Z</time>
      </trkpt>
      <trkpt lat="48.649" lon="1.9393">
        <ele>168.2</ele>
        <time>2024-04-23T09:05:39Z</time>
      </trkpt>
      <trkpt lat="48.64906" lon="1.93919">
        <ele>167.8</ele>
        <time>2024-04-23T09:05:46Z</time>
      </trkpt>
      <trkpt lat="48.64913" lon="1.93907">
        <ele>167.3</ele>
        <time>2024-04-23T09:05:54Z</time>
      </trkpt>
      <trkpt lat="48.64919" lon="1.93895">
        <ele>167</ele>
        <time>2024-04-23T09:06:01Z</time>
      </trkpt>
      <trkpt lat="48.64925" lon="1.93883">
        <ele>167.2</ele>
        <time>2024-04-23T09:06:08Z</time>
      </trkpt>
      <trkpt lat="48.64929" lon="1.93869">
        <ele>167.7</ele>
        <time>2024-04-23T09:06:15Z</time>
      </trkpt>
      <trkpt lat="48.64934" lon="1.93856">
        <ele>168.2</ele>
        <time>2024-04-23T09:06:22Z</time>
      </trkpt>
      <trkpt lat="48.64939" lon="1.93844">
        <ele>168.6</ele>
        <time>2024-04-23T09:06:30Z</time>
      </trkpt>
      <trkpt lat="48.64944" lon="1.93832">
        <ele>169</ele>
        <time>2024-04-23T09:06:36Z</time>
      </trkpt>
      <trkpt lat="48.64948" lon="1.9382">
        <ele>169.1</ele>
        <time>2024-04-23T09:06:44Z</time>
      </trkpt>
      <trkpt lat="48.64954" lon="1.93808">
        <ele>169.3</ele>
        <time>2024-04-23T09:06:51Z</time>
      </trkpt>
      <trkpt lat="48.64958" lon="1.93794">
        <ele>169.5</ele>
        <time>2024-04-23T09:06:58Z</time>
      </trkpt>
      <trkpt lat="48.64963" lon="1.93782">
        <ele>169.7</ele>
        <time>2024-04-23T09:07:04Z</time>
      </trkpt>
      <trkpt lat="48.64969" lon="1.93769">
        <ele>169.9</ele>
        <time>2024-04-23T09:07:11Z</time>
      </trkpt>
      <trkpt lat="48.64973" lon="1.93755">
        <ele>170</ele>
        <time>2024-04-23T09:07:18Z</time>
      </trkpt>
      <trkpt lat="48.64979" lon="1.93744">
        <ele>170</ele>
        <time>2024-04-23T09:07:25Z</time>
      </trkpt>
      <trkpt lat="48.64984" lon="1.93732">
        <ele>170</ele>
        <time>2024-04-23T09:07:31Z</time>
      </trkpt>
      <trkpt lat="48.6499" lon="1.93719">
        <ele>170</ele>
        <time>2024-04-23T09:07:38Z</time>
      </trkpt>
      <trkpt lat="48.64993" lon="1.93705">
        <ele>170</ele>
        <time>2024-04-23T09:07:44Z</time>
      </trkpt>
      <trkpt lat="48.64999" lon="1.93692">
        <ele>170</ele>
        <time>2024-04-23T09:07:51Z</time>
      </trkpt>
      <trkpt lat="48.65004" lon="1.9368">
        <ele>170</ele>
        <time>2024-04-23T09:07:59Z</time>
      </trkpt>
      <trkpt lat="48.65008" lon="1.93668">
        <ele>170</ele>
        <time>2024-04-23T09:08:05Z</time>
      </trkpt>
      <trkpt lat="48.65015" lon="1.93655">
        <ele>170</ele>
        <time>2024-04-23T09:08:13Z</time>
      </trkpt>
      <trkpt lat="48.65019" lon="1.93642">
        <ele>170</ele>
        <time>2024-04-23T09:08:20Z</time>
      </trkpt>
      <trkpt lat="48.65022" lon="1.93629">
        <ele>170.4</ele>
        <time>2024-04-23T09:08:26Z</time>
      </trkpt>
      <trkpt lat="48.65028" lon="1.93618">
        <ele>170.8</ele>
        <time>2024-04-23T09:08:33Z</time>
      </trkpt>
      <trkpt lat="48.65034" lon="1.93606">
        <ele>171</ele>
        <time>2024-04-23T09:08:40Z</time>
      </trkpt>
      <trkpt lat="48.65041" lon="1.93594">
        <ele>171</ele>
        <time>2024-04-23T09:08:47Z</time>
      </trkpt>
      <trkpt lat="48.65048" lon="1.93583">
        <ele>171</ele>
        <time>2024-04-23T09:08:55Z</time>
      </trkpt>
      <trkpt lat="48.65054" lon="1.9357">
        <ele>170.6</ele>
        <time>2024-04-23T09:09:03Z</time>
      </trkpt>
      <trkpt lat="48.65059" lon="1.93556">
        <ele>170.1</ele>
        <time>2024-04-23T09:09:11Z</time>
      </trkpt>
      <trkpt lat="48.65064" lon="1.93544">
        <ele>170.6</ele>
        <time>2024-04-23T09:09:18Z</time>
      </trkpt>
      <trkpt lat="48.6507" lon="1.93534">
        <ele>170.9</ele>
        <time>2024-04-23T09:09:25Z</time>
      </trkpt>
      <trkpt lat="48.65077" lon="1.93521">
        <ele>171</ele>
        <time>2024-04-23T09:09:32Z</time>
      </trkpt>
      <trkpt lat="48.65083" lon="1.9351">
        <ele>171</ele>
        <time>2024-04-23T09:09:39Z</time>
      </trkpt>
      <trkpt lat="48.65088" lon="1.93497">
        <ele>171</ele>
        <time>2024-04-23T09:09:46Z</time>
      </trkpt>
      <trkpt lat="48.65093" lon="1.93484">
        <ele>171</ele>
        <time>2024-04-23T09:09:53Z</time>
      </trkpt>
      <trkpt lat="48.65099" lon="1.93472">
        <ele>171</ele>
        <time>2024-04-23T09:10:00Z</time>
      </trkpt>
      <trkpt lat="48.65105" lon="1.9346">
        <ele>171</ele>
        <time>2024-04-23T09:10:08Z</time>
      </trkpt>
      <trkpt lat="48.65109" lon="1.93447">
        <ele>171</ele>
        <time>2024-04-23T09:10:15Z</time>
      </trkpt>
      <trkpt lat="48.65115" lon="1.93435">
        <ele>171.1</ele>
        <time>2024-04-23T09:10:22Z</time>
      </trkpt>
      <trkpt lat="48.6512" lon="1.93422">
        <ele>171.3</ele>
        <time>2024-04-23T09:10:29Z</time>
      </trkpt>
      <trkpt lat="48.65127" lon="1.93412">
        <ele>171.6</ele>
        <time>2024-04-23T09:10:35Z</time>
      </trkpt>
      <trkpt lat="48.65132" lon="1.93401">
        <ele>171.9</ele>
        <time>2024-04-23T09:10:41Z</time>
      </trkpt>
      <trkpt lat="48.65137" lon="1.93389">
        <ele>172</ele>
        <time>2024-04-23T09:10:49Z</time>
      </trkpt>
      <trkpt lat="48.65142" lon="1.93377">
        <ele>172</ele>
        <time>2024-04-23T09:10:57Z</time>
      </trkpt>
      <trkpt lat="48.65147" lon="1.93364">
        <ele>172</ele>
        <time>2024-04-23T09:11:04Z</time>
      </trkpt>
      <trkpt lat="48.65153" lon="1.93352">
        <ele>172</ele>
        <time>2024-04-23T09:11:11Z</time>
      </trkpt>
      <trkpt lat="48.65158" lon="1.93339">
        <ele>172</ele>
        <time>2024-04-23T09:11:18Z</time>
      </trkpt>
      <trkpt lat="48.65163" lon="1.93326">
        <ele>172</ele>
        <time>2024-04-23T09:11:25Z</time>
      </trkpt>
      <trkpt lat="48.65165" lon="1.93312">
        <ele>172</ele>
        <time>2024-04-23T09:11:31Z</time>
      </trkpt>
      <trkpt lat="48.65171" lon="1.933">
        <ele>172</ele>
        <time>2024-04-23T09:11:39Z</time>
      </trkpt>
      <trkpt lat="48.65176" lon="1.93288">
        <ele>172</ele>
        <time>2024-04-23T09:11:47Z</time>
      </trkpt>
      <trkpt lat="48.65179" lon="1.93274">
        <ele>172</ele>
        <time>2024-04-23T09:11:55Z</time>
      </trkpt>
      <trkpt lat="48.65185" lon="1.93262">
        <ele>172</ele>
        <time>2024-04-23T09:12:03Z</time>
      </trkpt>
      <trkpt lat="48.65191" lon="1.93251">
        <ele>172</ele>
        <time>2024-04-23T09:12:12Z</time>
      </trkpt>
      <trkpt lat="48.65196" lon="1.93239">
        <ele>172</ele>
        <time>2024-04-23T09:12:19Z</time>
      </trkpt>
      <trkpt lat="48.652" lon="1.93225">
        <ele>172</ele>
        <time>2024-04-23T09:12:27Z</time>
      </trkpt>
      <trkpt lat="48.65206" lon="1.93215">
        <ele>172</ele>
        <time>2024-04-23T09:12:35Z</time>
      </trkpt>
      <trkpt lat="48.65212" lon="1.93204">
        <ele>172</ele>
        <time>2024-04-23T09:12:45Z</time>
      </trkpt>
      <trkpt lat="48.65219" lon="1.93193">
        <ele>172</ele>
        <time>2024-04-23T09:12:53Z</time>
      </trkpt>
      <trkpt lat="48.65225" lon="1.93181">
        <ele>172</ele>
        <time>2024-04-23T09:13:01Z</time>
      </trkpt>
      <trkpt lat="48.65229" lon="1.93167">
        <ele>172</ele>
        <time>2024-04-23T09:13:10Z</time>
      </trkpt>
      <trkpt lat="48.65233" lon="1.93154">
        <ele>171.5</ele>
        <time>2024-04-23T09:13:16Z</time>
      </trkpt>
      <trkpt lat="48.65236" lon="1.93139">
        <ele>171</ele>
        <time>2024-04-23T09:13:23Z</time>
      </trkpt>
      <trkpt lat="48.65243" lon="1.93128">
        <ele>171</ele>
        <time>2024-04-23T09:13:30Z</time>
      </trkpt>
      <trkpt lat="48.6525" lon="1.93118">
        <ele>171</ele>
        <time>2024-04-23T09:13:37Z</time>
      </trkpt>
      <trkpt lat="48.65256" lon="1.93107">
        <ele>171</ele>
        <time>2024-04-23T09:13:45Z</time>
      </trkpt>
      <trkpt lat="48.65261" lon="1.93094">
        <ele>171</ele>
        <time>2024-04-23T09:13:54Z</time>
      </trkpt>
      <trkpt lat="48.65266" lon="1.93082">
        <ele>171</ele>
        <time>2024-04-23T09:14:00Z</time>
      </trkpt>
      <trkpt lat="48.65272" lon="1.93071">
        <ele>171</ele>
        <time>2024-04-23T09:14:07Z</time>
      </trkpt>
      <trkpt lat="48.65279" lon="1.93063">
        <ele>171</ele>
        <time>2024-04-23T09:14:14Z</time>
      </trkpt>
      <trkpt lat="48.65287" lon="1.93055">
        <ele>170.7</ele>
        <time>2024-04-23T09:14:22Z</time>
      </trkpt>
      <trkpt lat="48.6529" lon="1.93042">
        <ele>170.3</ele>
        <time>2024-04-23T09:14:31Z</time>
      </trkpt>
      <trkpt lat="48.65299" lon="1.93041">
        <ele>170.1</ele>
        <time>2024-04-23T09:14:46Z</time>
      </trkpt>
      <trkpt lat="48.65307" lon="1.93047">
        <ele>170</ele>
        <time>2024-04-23T09:14:56Z</time>
      </trkpt>
      <trkpt lat="48.65316" lon="1.93054">
        <ele>170</ele>
        <time>2024-04-23T09:15:03Z</time>
      </trkpt>
      <trkpt lat="48.65324" lon="1.93061">
        <ele>170.1</ele>
        <time>2024-04-23T09:15:11Z</time>
      </trkpt>
      <trkpt lat="48.65332" lon="1.9307">
        <ele>170</ele>
        <time>2024-04-23T09:15:18Z</time>
      </trkpt>
      <trkpt lat="48.6534" lon="1.93077">
        <ele>169.7</ele>
        <time>2024-04-23T09:15:25Z</time>
      </trkpt>
      <trkpt lat="48.65347" lon="1.93087">
        <ele>169.5</ele>
        <time>2024-04-23T09:15:33Z</time>
      </trkpt>
      <trkpt lat="48.65355" lon="1.93093">
        <ele>169.2</ele>
        <time>2024-04-23T09:15:39Z</time>
      </trkpt>
      <trkpt lat="48.65365" lon="1.93099">
        <ele>168.7</ele>
        <time>2024-04-23T09:15:45Z</time>
      </trkpt>
      <trkpt lat="48.65374" lon="1.93105">
        <ele>168.1</ele>
        <time>2024-04-23T09:15:51Z</time>
      </trkpt>
      <trkpt lat="48.65382" lon="1.93111">
        <ele>167.5</ele>
        <time>2024-04-23T09:15:57Z</time>
      </trkpt>
      <trkpt lat="48.65391" lon="1.93117">
        <ele>166.9</ele>
        <time>2024-04-23T09:16:04Z</time>
      </trkpt>
      <trkpt lat="48.65399" lon="1.93125">
        <ele>166.3</ele>
        <time>2024-04-23T09:16:11Z</time>
      </trkpt>
      <trkpt lat="48.65407" lon="1.93135">
        <ele>165.7</ele>
        <time>2024-04-23T09:16:18Z</time>
      </trkpt>
      <trkpt lat="48.65414" lon="1.93144">
        <ele>165.1</ele>
        <time>2024-04-23T09:16:26Z</time>
      </trkpt>
      <trkpt lat="48.65422" lon="1.93153">
        <ele>164.1</ele>
        <time>2024-04-23T09:16:35Z</time>
      </trkpt>
      <trkpt lat="48.65431" lon="1.93153">
        <ele>163.2</ele>
        <time>2024-04-23T09:16:58Z</time>
      </trkpt>
      <trkpt lat="48.65439" lon="1.9316">
        <ele>162.4</ele>
        <time>2024-04-23T09:17:07Z</time>
      </trkpt>
      <trkpt lat="48.65448" lon="1.93166">
        <ele>161.7</ele>
        <time>2024-04-23T09:17:15Z</time>
      </trkpt>
      <trkpt lat="48.65451" lon="1.93179">
        <ele>161.3</ele>
        <time>2024-04-23T09:17:33Z</time>
      </trkpt>
      <trkpt lat="48.65457" lon="1.93191">
        <ele>160.6</ele>
        <time>2024-04-23T09:17:42Z</time>
      </trkpt>
      <trkpt lat="48.65457" lon="1.93205">
        <ele>160.3</ele>
        <time>2024-04-23T09:17:59Z</time>
      </trkpt>
      <trkpt lat="48.65463" lon="1.93215">
        <ele>159.2</ele>
        <time>2024-04-23T09:18:16Z</time>
      </trkpt>
      <trkpt lat="48.65472" lon="1.93219">
        <ele>158.1</ele>
        <time>2024-04-23T09:18:21Z</time>
      </trkpt>
      <trkpt lat="48.65482" lon="1.93223">
        <ele>157.3</ele>
        <time>2024-04-23T09:18:27Z</time>
      </trkpt>
      <trkpt lat="48.65489" lon="1.93231">
        <ele>156.6</ele>
        <time>2024-04-23T09:18:34Z</time>
      </trkpt>
      <trkpt lat="48.65498" lon="1.93239">
        <ele>155.6</ele>
        <time>2024-04-23T09:18:42Z</time>
      </trkpt>
      <trkpt lat="48.65507" lon="1.93246">
        <ele>154.4</ele>
        <time>2024-04-23T09:18:49Z</time>
      </trkpt>
      <trkpt lat="48.65515" lon="1.93255">
        <ele>153.2</ele>
        <time>2024-04-23T09:18:58Z</time>
      </trkpt>
      <trkpt lat="48.65525" lon="1.9326">
        <ele>151.9</ele>
        <time>2024-04-23T09:19:13Z</time>
      </trkpt>
      <trkpt lat="48.65535" lon="1.93258">
        <ele>151.7</ele>
        <time>2024-04-23T09:19:20Z</time>
      </trkpt>
      <trkpt lat="48.65544" lon="1.93253">
        <ele>151.9</ele>
        <time>2024-04-23T09:19:27Z</time>
      </trkpt>
      <trkpt lat="48.65553" lon="1.93249">
        <ele>152</ele>
        <time>2024-04-23T09:19:35Z</time>
      </trkpt>
      <trkpt lat="48.65562" lon="1.93247">
        <ele>152.5</ele>
        <time>2024-04-23T09:19:43Z</time>
      </trkpt>
      <trkpt lat="48.65571" lon="1.9324">
        <ele>152.9</ele>
        <time>2024-04-23T09:19:56Z</time>
      </trkpt>
      <trkpt lat="48.65581" lon="1.9324">
        <ele>153.5</ele>
        <time>2024-04-23T09:20:04Z</time>
      </trkpt>
      <trkpt lat="48.65591" lon="1.93238">
        <ele>154.2</ele>
        <time>2024-04-23T09:20:11Z</time>
      </trkpt>
      <trkpt lat="48.656" lon="1.93237">
        <ele>155</ele>
        <time>2024-04-23T09:20:19Z</time>
      </trkpt>
      <trkpt lat="48.6561" lon="1.93237">
        <ele>155.9</ele>
        <time>2024-04-23T09:20:27Z</time>
      </trkpt>
      <trkpt lat="48.65619" lon="1.93233">
        <ele>156.5</ele>
        <time>2024-04-23T09:20:35Z</time>
      </trkpt>
      <trkpt lat="48.65627" lon="1.93229">
        <ele>157.2</ele>
        <time>2024-04-23T09:20:44Z</time>
      </trkpt>
      <trkpt lat="48.65637" lon="1.93227">
        <ele>157.9</ele>
        <time>2024-04-23T09:20:52Z</time>
      </trkpt>
      <trkpt lat="48.65646" lon="1.93222">
        <ele>158.5</ele>
        <time>2024-04-23T09:21:01Z</time>
      </trkpt>
      <trkpt lat="48.65654" lon="1.93216">
        <ele>159.3</ele>
        <time>2024-04-23T09:21:08Z</time>
      </trkpt>
      <trkpt lat="48.65658" lon="1.93204">
        <ele>160.1</ele>
        <time>2024-04-23T09:21:17Z</time>
      </trkpt>
      <trkpt lat="48.65661" lon="1.93189">
        <ele>160.9</ele>
        <time>2024-04-23T09:21:25Z</time>
      </trkpt>
      <trkpt lat="48.65658" lon="1.93175">
        <ele>161.8</ele>
        <time>2024-04-23T09:21:35Z</time>
      </trkpt>
      <trkpt lat="48.6565" lon="1.93169">
        <ele>161.6</ele>
        <time>2024-04-23T09:21:41Z</time>
      </trkpt>
      <trkpt lat="48.6565" lon="1.93155">
        <ele>162.2</ele>
        <time>2024-04-23T09:21:50Z</time>
      </trkpt>
      <trkpt lat="48.65651" lon="1.93142">
        <ele>162.7</ele>
        <time>2024-04-23T09:22:12Z</time>
      </trkpt>
      <trkpt lat="48.65642" lon="1.93139">
        <ele>162.2</ele>
        <time>2024-04-23T09:22:23Z</time>
      </trkpt>
      <trkpt lat="48.65638" lon="1.93126">
        <ele>162.3</ele>
        <time>2024-04-23T09:22:32Z</time>
      </trkpt>
      <trkpt lat="48.65635" lon="1.93113">
        <ele>162.3</ele>
        <time>2024-04-23T09:22:41Z</time>
      </trkpt>
      <trkpt lat="48.6563" lon="1.931">
        <ele>162.4</ele>
        <time>2024-04-23T09:22:49Z</time>
      </trkpt>
      <trkpt lat="48.65629" lon="1.93086">
        <ele>163</ele>
        <time>2024-04-23T09:22:57Z</time>
      </trkpt>
      <trkpt lat="48.65629" lon="1.93071">
        <ele>163.7</ele>
        <time>2024-04-23T09:23:07Z</time>
      </trkpt>
      <trkpt lat="48.65632" lon="1.93057">
        <ele>164.7</ele>
        <time>2024-04-23T09:23:16Z</time>
      </trkpt>
      <trkpt lat="48.65635" lon="1.93044">
        <ele>165.7</ele>
        <time>2024-04-23T09:23:24Z</time>
      </trkpt>
      <trkpt lat="48.65638" lon="1.9303">
        <ele>166.7</ele>
        <time>2024-04-23T09:23:34Z</time>
      </trkpt>
      <trkpt lat="48.65642" lon="1.93016">
        <ele>167.1</ele>
        <time>2024-04-23T09:23:45Z</time>
      </trkpt>
      <trkpt lat="48.65647" lon="1.93004">
        <ele>167.3</ele>
        <time>2024-04-23T09:23:54Z</time>
      </trkpt>
      <trkpt lat="48.65646" lon="1.9299">
        <ele>167.3</ele>
        <time>2024-04-23T09:24:07Z</time>
      </trkpt>
      <trkpt lat="48.65647" lon="1.92976">
        <ele>167.3</ele>
        <time>2024-04-23T09:24:18Z</time>
      </trkpt>
      <trkpt lat="48.65646" lon="1.92961">
        <ele>167.3</ele>
        <time>2024-04-23T09:24:30Z</time>
      </trkpt>
      <trkpt lat="48.65644" lon="1.92948">
        <ele>167.2</ele>
        <time>2024-04-23T09:24:39Z</time>
      </trkpt>
      <trkpt lat="48.65646" lon="1.92934">
        <ele>167.2</ele>
        <time>2024-04-23T09:24:49Z</time>
      </trkpt>
      <trkpt lat="48.65648" lon="1.9292">
        <ele>167.3</ele>
        <time>2024-04-23T09:25:01Z</time>
      </trkpt>
      <trkpt lat="48.65647" lon="1.92905">
        <ele>167.3</ele>
        <time>2024-04-23T09:25:10Z</time>
      </trkpt>
      <trkpt lat="48.65646" lon="1.9289">
        <ele>167.2</ele>
        <time>2024-04-23T09:25:19Z</time>
      </trkpt>
      <trkpt lat="48.65648" lon="1.92877">
        <ele>167.6</ele>
        <time>2024-04-23T09:25:33Z</time>
      </trkpt>
      <trkpt lat="48.65646" lon="1.92862">
        <ele>168</ele>
        <time>2024-04-23T09:25:40Z</time>
      </trkpt>
      <trkpt lat="48.65646" lon="1.92847">
        <ele>168</ele>
        <time>2024-04-23T09:25:48Z</time>
      </trkpt>
      <trkpt lat="48.65649" lon="1.92834">
        <ele>168</ele>
        <time>2024-04-23T09:25:58Z</time>
      </trkpt>
      <trkpt lat="48.65647" lon="1.92819">
        <ele>168</ele>
        <time>2024-04-23T09:26:06Z</time>
      </trkpt>
      <trkpt lat="48.65645" lon="1.92805">
        <ele>168</ele>
        <time>2024-04-23T09:26:14Z</time>
      </trkpt>
      <trkpt lat="48.65645" lon="1.9279">
        <ele>168</ele>
        <time>2024-04-23T09:26:23Z</time>
      </trkpt>
      <trkpt lat="48.65644" lon="1.92775">
        <ele>168</ele>
        <time>2024-04-23T09:26:30Z</time>
      </trkpt>
      <trkpt lat="48.65641" lon="1.92761">
        <ele>168</ele>
        <time>2024-04-23T09:26:37Z</time>
      </trkpt>
      <trkpt lat="48.6564" lon="1.92748">
        <ele>168</ele>
        <time>2024-04-23T09:26:44Z</time>
      </trkpt>
      <trkpt lat="48.65638" lon="1.92732">
        <ele>168</ele>
        <time>2024-04-23T09:26:51Z</time>
      </trkpt>
      <trkpt lat="48.65636" lon="1.92718">
        <ele>167.9</ele>
        <time>2024-04-23T09:26:57Z</time>
      </trkpt>
      <trkpt lat="48.65634" lon="1.92704">
        <ele>167.9</ele>
        <time>2024-04-23T09:27:02Z</time>
      </trkpt>
      <trkpt lat="48.65634" lon="1.92689">
        <ele>168</ele>
        <time>2024-04-23T09:27:09Z</time>
      </trkpt>
      <trkpt lat="48.65633" lon="1.92676">
        <ele>168</ele>
        <time>2024-04-23T09:27:14Z</time>
      </trkpt>
      <trkpt lat="48.6563" lon="1.92662">
        <ele>168</ele>
        <time>2024-04-23T09:27:19Z</time>
      </trkpt>
      <trkpt lat="48.65628" lon="1.92647">
        <ele>168</ele>
        <time>2024-04-23T09:27:26Z</time>
      </trkpt>
      <trkpt lat="48.65624" lon="1.92633">
        <ele>168</ele>
        <time>2024-04-23T09:27:31Z</time>
      </trkpt>
      <trkpt lat="48.65622" lon="1.92617">
        <ele>168</ele>
        <time>2024-04-23T09:27:37Z</time>
      </trkpt>
      <trkpt lat="48.65623" lon="1.92602">
        <ele>168</ele>
        <time>2024-04-23T09:27:45Z</time>
      </trkpt>
      <trkpt lat="48.6562" lon="1.92588">
        <ele>168</ele>
        <time>2024-04-23T09:27:52Z</time>
      </trkpt>
      <trkpt lat="48.65618" lon="1.92574">
        <ele>168</ele>
        <time>2024-04-23T09:27:59Z</time>
      </trkpt>
      <trkpt lat="48.65612" lon="1.92561">
        <ele>168</ele>
        <time>2024-04-23T09:28:06Z</time>
      </trkpt>
      <trkpt lat="48.65605" lon="1.92552">
        <ele>168</ele>
        <time>2024-04-23T09:28:13Z</time>
      </trkpt>
      <trkpt lat="48.65597" lon="1.92543">
        <ele>168</ele>
        <time>2024-04-23T09:28:21Z</time>
      </trkpt>
      <trkpt lat="48.65589" lon="1.92534">
        <ele>168</ele>
        <time>2024-04-23T09:28:29Z</time>
      </trkpt>
      <trkpt lat="48.65581" lon="1.92527">
        <ele>168</ele>
        <time>2024-04-23T09:28:37Z</time>
      </trkpt>
      <trkpt lat="48.65573" lon="1.9252">
        <ele>168</ele>
        <time>2024-04-23T09:28:44Z</time>
      </trkpt>
      <trkpt lat="48.65566" lon="1.92511">
        <ele>168</ele>
        <time>2024-04-23T09:28:53Z</time>
      </trkpt>
      <trkpt lat="48.65558" lon="1.92502">
        <ele>168</ele>
        <time>2024-04-23T09:28:59Z</time>
      </trkpt>
      <trkpt lat="48.65549" lon="1.92497">
        <ele>167.8</ele>
        <time>2024-04-23T09:29:07Z</time>
      </trkpt>
    </trkseg>
  </trk>
</gpx>